<?xml version="1.0" encoding="UTF-8" standalone="no" ?>
<gpx xmlns="http://www.topografix.com/GPX/1/1" xmlns:xsi="http://www.w3.org/2001/XMLSchema-instance" xsi:schemaLocation="http://www.topografix.com/GPX/1/1 http://www.topografix.com/GPX/1/1/gpx.xsd" version="1.1" creator="VisuGPX - https://www.visugpx.com">
  <metadata>
    <name>Pariou - Tour Puy de Dôme</name>
  </metadata>
  <trk>
    <name><![CDATA[Ascension du Puy de Pariou - 6698 - UtagawaVTT.com]]></name>
    <trkseg>
      <trkpt lat="45.80382" lon="2.987">
        <ele>972.780029</ele>
        <time>2012-06-15T07:43:34Z</time>
      </trkpt>
      <trkpt lat="45.80357" lon="2.98647">
        <ele>972.217529</ele>
        <time>2012-06-15T07:48:16Z</time>
      </trkpt>
      <trkpt lat="45.80358" lon="2.98643">
        <ele>972.237488</ele>
        <time>2012-06-15T07:48:17Z</time>
      </trkpt>
      <trkpt lat="45.80383" lon="2.98527">
        <ele>974.172485</ele>
        <time>2012-06-15T07:48:49Z</time>
      </trkpt>
      <trkpt lat="45.80352" lon="2.98485">
        <ele>974.11499</ele>
        <time>2012-06-15T07:49:00Z</time>
      </trkpt>
      <trkpt lat="45.8037" lon="2.9843">
        <ele>975.38623</ele>
        <time>2012-06-15T07:49:39Z</time>
      </trkpt>
      <trkpt lat="45.80371" lon="2.98425">
        <ele>975.473755</ele>
        <time>2012-06-15T07:49:40Z</time>
      </trkpt>
      <trkpt lat="45.80367" lon="2.98294">
        <ele>979.230225</ele>
        <time>2012-06-15T07:50:47Z</time>
      </trkpt>
      <trkpt lat="45.80369" lon="2.98291">
        <ele>979.346863</ele>
        <time>2012-06-15T07:50:48Z</time>
      </trkpt>
      <trkpt lat="45.80393" lon="2.98172">
        <ele>989.221863</ele>
        <time>2012-06-15T07:51:18Z</time>
      </trkpt>
      <trkpt lat="45.80402" lon="2.98111">
        <ele>995.393188</ele>
        <time>2012-06-15T07:51:36Z</time>
      </trkpt>
      <trkpt lat="45.80405" lon="2.98047">
        <ele>999.66571</ele>
        <time>2012-06-15T07:52:05Z</time>
      </trkpt>
      <trkpt lat="45.80404" lon="2.98046">
        <ele>999.655884</ele>
        <time>2012-06-15T07:52:06Z</time>
      </trkpt>
      <trkpt lat="45.80451" lon="2.9794">
        <ele>1011.217529</ele>
        <time>2012-06-15T07:53:46Z</time>
      </trkpt>
      <trkpt lat="45.80453" lon="2.97937">
        <ele>1011.299438</ele>
        <time>2012-06-15T07:53:47Z</time>
      </trkpt>
      <trkpt lat="45.80471" lon="2.97815">
        <ele>1015.993225</ele>
        <time>2012-06-15T07:54:20Z</time>
      </trkpt>
      <trkpt lat="45.8047" lon="2.97753">
        <ele>1018.832031</ele>
        <time>2012-06-15T07:54:36Z</time>
      </trkpt>
      <trkpt lat="45.80472" lon="2.9769">
        <ele>1019.650024</ele>
        <time>2012-06-15T07:54:54Z</time>
      </trkpt>
      <trkpt lat="45.80472" lon="2.97687">
        <ele>1019.64502</ele>
        <time>2012-06-15T07:54:55Z</time>
      </trkpt>
      <trkpt lat="45.80479" lon="2.97571">
        <ele>1019.486511</ele>
        <time>2012-06-15T07:55:14Z</time>
      </trkpt>
      <trkpt lat="45.80455" lon="2.97518">
        <ele>1019.732483</ele>
        <time>2012-06-15T07:55:26Z</time>
      </trkpt>
      <trkpt lat="45.80425" lon="2.97473">
        <ele>1020.667786</ele>
        <time>2012-06-15T07:55:36Z</time>
      </trkpt>
      <trkpt lat="45.80399" lon="2.97426">
        <ele>1024.083984</ele>
        <time>2012-06-15T07:55:44Z</time>
      </trkpt>
      <trkpt lat="45.80392" lon="2.97363">
        <ele>1023.668396</ele>
        <time>2012-06-15T07:55:57Z</time>
      </trkpt>
      <trkpt lat="45.80392" lon="2.97358">
        <ele>1023.57373</ele>
        <time>2012-06-15T07:55:58Z</time>
      </trkpt>
      <trkpt lat="45.80378" lon="2.97242">
        <ele>1025.860352</ele>
        <time>2012-06-15T07:56:24Z</time>
      </trkpt>
      <trkpt lat="45.80374" lon="2.97181">
        <ele>1026.384521</ele>
        <time>2012-06-15T07:56:39Z</time>
      </trkpt>
      <trkpt lat="45.80368" lon="2.97121">
        <ele>1026.663818</ele>
        <time>2012-06-15T07:56:54Z</time>
      </trkpt>
      <trkpt lat="45.80355" lon="2.97059">
        <ele>1027.419434</ele>
        <time>2012-06-15T07:57:10Z</time>
      </trkpt>
      <trkpt lat="45.80353" lon="2.97056">
        <ele>1027.847168</ele>
        <time>2012-06-15T07:57:11Z</time>
      </trkpt>
      <trkpt lat="45.80312" lon="2.96948">
        <ele>1038.515747</ele>
        <time>2012-06-15T07:57:37Z</time>
      </trkpt>
      <trkpt lat="45.803" lon="2.96886">
        <ele>1038.756836</ele>
        <time>2012-06-15T07:57:52Z</time>
      </trkpt>
      <trkpt lat="45.80281" lon="2.96831">
        <ele>1041.255371</ele>
        <time>2012-06-15T07:58:08Z</time>
      </trkpt>
      <trkpt lat="45.80258" lon="2.96779">
        <ele>1042.285645</ele>
        <time>2012-06-15T07:58:22Z</time>
      </trkpt>
      <trkpt lat="45.80256" lon="2.96774">
        <ele>1042.272095</ele>
        <time>2012-06-15T07:58:23Z</time>
      </trkpt>
      <trkpt lat="45.80215" lon="2.96672">
        <ele>1041.957031</ele>
        <time>2012-06-15T07:58:49Z</time>
      </trkpt>
      <trkpt lat="45.80178" lon="2.96638">
        <ele>1043.915161</ele>
        <time>2012-06-15T07:59:03Z</time>
      </trkpt>
      <trkpt lat="45.80141" lon="2.96605">
        <ele>1045.772217</ele>
        <time>2012-06-15T07:59:17Z</time>
      </trkpt>
      <trkpt lat="45.80107" lon="2.96564">
        <ele>1047.13623</ele>
        <time>2012-06-15T07:59:31Z</time>
      </trkpt>
      <trkpt lat="45.80105" lon="2.96561">
        <ele>1047.128906</ele>
        <time>2012-06-15T07:59:32Z</time>
      </trkpt>
      <trkpt lat="45.80028" lon="2.96512">
        <ele>1049.016479</ele>
        <time>2012-06-15T08:00:04Z</time>
      </trkpt>
      <trkpt lat="45.79985" lon="2.96493">
        <ele>1049.811523</ele>
        <time>2012-06-15T08:00:21Z</time>
      </trkpt>
      <trkpt lat="45.79942" lon="2.96481">
        <ele>1053.528931</ele>
        <time>2012-06-15T08:00:37Z</time>
      </trkpt>
      <trkpt lat="45.7994" lon="2.9648">
        <ele>1053.841431</ele>
        <time>2012-06-15T08:00:38Z</time>
      </trkpt>
      <trkpt lat="45.79861" lon="2.96438">
        <ele>1059.193848</ele>
        <time>2012-06-15T08:01:12Z</time>
      </trkpt>
      <trkpt lat="45.7982" lon="2.96424">
        <ele>1061.197632</ele>
        <time>2012-06-15T08:01:30Z</time>
      </trkpt>
      <trkpt lat="45.79776" lon="2.96412">
        <ele>1065.903931</ele>
        <time>2012-06-15T08:01:48Z</time>
      </trkpt>
      <trkpt lat="45.79773" lon="2.96412">
        <ele>1066.031128</ele>
        <time>2012-06-15T08:01:49Z</time>
      </trkpt>
      <trkpt lat="45.79687" lon="2.96414">
        <ele>1068.651001</ele>
        <time>2012-06-15T08:02:24Z</time>
      </trkpt>
      <trkpt lat="45.79643" lon="2.9642">
        <ele>1069.954102</ele>
        <time>2012-06-15T08:02:39Z</time>
      </trkpt>
      <trkpt lat="45.79599" lon="2.96431">
        <ele>1074.435181</ele>
        <time>2012-06-15T08:02:50Z</time>
      </trkpt>
      <trkpt lat="45.79594" lon="2.96432">
        <ele>1074.744019</ele>
        <time>2012-06-15T08:02:51Z</time>
      </trkpt>
      <trkpt lat="45.79518" lon="2.9648">
        <ele>1074.568237</ele>
        <time>2012-06-15T08:03:11Z</time>
      </trkpt>
      <trkpt lat="45.79487" lon="2.9652">
        <ele>1076.409302</ele>
        <time>2012-06-15T08:03:21Z</time>
      </trkpt>
      <trkpt lat="45.79455" lon="2.96567">
        <ele>1077.606323</ele>
        <time>2012-06-15T08:03:37Z</time>
      </trkpt>
      <trkpt lat="45.7932" lon="2.96853">
        <ele>1084.109619</ele>
        <time>2012-06-15T08:10:57Z</time>
      </trkpt>
      <trkpt lat="45.79254" lon="2.96877">
        <ele>1086.894531</ele>
        <time>2012-06-15T08:12:59Z</time>
      </trkpt>
      <trkpt lat="45.79148" lon="2.96849">
        <ele>1097.64502</ele>
        <time>2012-06-15T08:16:01Z</time>
      </trkpt>
      <trkpt lat="45.79005" lon="2.96743">
        <ele>1111.874146</ele>
        <time>2012-06-15T08:20:25Z</time>
      </trkpt>
      <trkpt lat="45.78948" lon="2.96714">
        <ele>1115.903809</ele>
        <time>2012-06-15T08:21:53Z</time>
      </trkpt>
      <trkpt lat="45.78946" lon="2.96713">
        <ele>1116.042358</ele>
        <time>2012-06-15T08:21:54Z</time>
      </trkpt>
      <trkpt lat="45.78863" lon="2.96697">
        <ele>1119.795654</ele>
        <time>2012-06-15T08:22:25Z</time>
      </trkpt>
      <trkpt lat="45.78819" lon="2.96694">
        <ele>1124.141235</ele>
        <time>2012-06-15T08:22:43Z</time>
      </trkpt>
      <trkpt lat="45.78774" lon="2.96697">
        <ele>1127.410645</ele>
        <time>2012-06-15T08:23:04Z</time>
      </trkpt>
      <trkpt lat="45.78772" lon="2.96697">
        <ele>1127.549805</ele>
        <time>2012-06-15T08:23:05Z</time>
      </trkpt>
      <trkpt lat="45.78687" lon="2.9668">
        <ele>1133.227661</ele>
        <time>2012-06-15T08:23:44Z</time>
      </trkpt>
      <trkpt lat="45.78644" lon="2.96671">
        <ele>1134.801514</ele>
        <time>2012-06-15T08:26:08Z</time>
      </trkpt>
      <trkpt lat="45.78642" lon="2.96671">
        <ele>1134.81543</ele>
        <time>2012-06-15T08:26:09Z</time>
      </trkpt>
      <trkpt lat="45.78556" lon="2.96659">
        <ele>1134.986206</ele>
        <time>2012-06-15T08:26:50Z</time>
      </trkpt>
      <trkpt lat="45.78512" lon="2.9665">
        <ele>1133.155029</ele>
        <time>2012-06-15T08:27:16Z</time>
      </trkpt>
      <trkpt lat="45.78508" lon="2.9665">
        <ele>1132.953735</ele>
        <time>2012-06-15T08:27:17Z</time>
      </trkpt>
      <trkpt lat="45.78432" lon="2.96615">
        <ele>1127.468384</ele>
        <time>2012-06-15T08:27:29Z</time>
      </trkpt>
      <trkpt lat="45.78395" lon="2.9659">
        <ele>1123.874512</ele>
        <time>2012-06-15T08:27:35Z</time>
      </trkpt>
      <trkpt lat="45.78392" lon="2.96527">
        <ele>1124.914795</ele>
        <time>2012-06-15T08:27:46Z</time>
      </trkpt>
      <trkpt lat="45.78382" lon="2.96467">
        <ele>1124.949585</ele>
        <time>2012-06-15T08:27:59Z</time>
      </trkpt>
      <trkpt lat="45.78376" lon="2.96406">
        <ele>1123.176636</ele>
        <time>2012-06-15T08:28:10Z</time>
      </trkpt>
      <trkpt lat="45.78382" lon="2.96345">
        <ele>1120.206299</ele>
        <time>2012-06-15T08:28:20Z</time>
      </trkpt>
      <trkpt lat="45.78382" lon="2.96339">
        <ele>1119.691284</ele>
        <time>2012-06-15T08:28:21Z</time>
      </trkpt>
      <trkpt lat="45.78418" lon="2.96235">
        <ele>1109.190552</ele>
        <time>2012-06-15T08:28:39Z</time>
      </trkpt>
      <trkpt lat="45.78453" lon="2.962">
        <ele>1105.064575</ele>
        <time>2012-06-15T08:28:50Z</time>
      </trkpt>
      <trkpt lat="45.78501" lon="2.96179">
        <ele>1100.300293</ele>
        <time>2012-06-15T08:29:03Z</time>
      </trkpt>
      <trkpt lat="45.78487" lon="2.9612">
        <ele>1092.730713</ele>
        <time>2012-06-15T08:29:12Z</time>
      </trkpt>
      <trkpt lat="45.78448" lon="2.96095">
        <ele>1087.794312</ele>
        <time>2012-06-15T08:29:19Z</time>
      </trkpt>
      <trkpt lat="45.784" lon="2.96103">
        <ele>1085.142212</ele>
        <time>2012-06-15T08:29:29Z</time>
      </trkpt>
      <trkpt lat="45.78394" lon="2.96104">
        <ele>1084.733521</ele>
        <time>2012-06-15T08:29:30Z</time>
      </trkpt>
      <trkpt lat="45.78311" lon="2.96083">
        <ele>1079.55603</ele>
        <time>2012-06-15T08:30:05Z</time>
      </trkpt>
      <trkpt lat="45.78279" lon="2.96038">
        <ele>1078.113037</ele>
        <time>2012-06-15T08:30:17Z</time>
      </trkpt>
      <trkpt lat="45.7827" lon="2.95981">
        <ele>1076.400024</ele>
        <time>2012-06-15T08:30:26Z</time>
      </trkpt>
      <trkpt lat="45.78254" lon="2.95921">
        <ele>1076.458252</ele>
        <time>2012-06-15T08:30:33Z</time>
      </trkpt>
      <trkpt lat="45.78251" lon="2.95912">
        <ele>1076.626465</ele>
        <time>2012-06-15T08:30:34Z</time>
      </trkpt>
      <trkpt lat="45.7821" lon="2.95812">
        <ele>1075.753662</ele>
        <time>2012-06-15T08:30:45Z</time>
      </trkpt>
      <trkpt lat="45.78183" lon="2.95761">
        <ele>1074.971558</ele>
        <time>2012-06-15T08:30:52Z</time>
      </trkpt>
      <trkpt lat="45.78152" lon="2.95719">
        <ele>1073.90686</ele>
        <time>2012-06-15T08:31:00Z</time>
      </trkpt>
      <trkpt lat="45.7814" lon="2.95656">
        <ele>1073.771973</ele>
        <time>2012-06-15T08:31:11Z</time>
      </trkpt>
      <trkpt lat="45.78124" lon="2.95597">
        <ele>1074.681274</ele>
        <time>2012-06-15T08:31:34Z</time>
      </trkpt>
      <trkpt lat="45.78122" lon="2.95594">
        <ele>1074.8125</ele>
        <time>2012-06-15T08:31:35Z</time>
      </trkpt>
      <trkpt lat="45.78075" lon="2.95494">
        <ele>1075.50354</ele>
        <time>2012-06-15T08:32:07Z</time>
      </trkpt>
      <trkpt lat="45.78055" lon="2.95436">
        <ele>1074.864746</ele>
        <time>2012-06-15T08:32:25Z</time>
      </trkpt>
      <trkpt lat="45.78027" lon="2.95359">
        <ele>1068.338745</ele>
        <time>2012-06-15T08:32:38Z</time>
      </trkpt>
      <trkpt lat="45.7802" lon="2.95357">
        <ele>1067.767212</ele>
        <time>2012-06-15T08:32:39Z</time>
      </trkpt>
      <trkpt lat="45.77947" lon="2.95334">
        <ele>1063.811646</ele>
        <time>2012-06-15T08:32:50Z</time>
      </trkpt>
      <trkpt lat="45.77901" lon="2.95294">
        <ele>1064.893799</ele>
        <time>2012-06-15T08:33:03Z</time>
      </trkpt>
      <trkpt lat="45.77854" lon="2.95268">
        <ele>1068.193726</ele>
        <time>2012-06-15T08:33:19Z</time>
      </trkpt>
      <trkpt lat="45.7781" lon="2.95254">
        <ele>1071.27356</ele>
        <time>2012-06-15T08:33:34Z</time>
      </trkpt>
      <trkpt lat="45.77765" lon="2.95249">
        <ele>1073.41333</ele>
        <time>2012-06-15T08:33:50Z</time>
      </trkpt>
      <trkpt lat="45.77762" lon="2.95248">
        <ele>1073.374268</ele>
        <time>2012-06-15T08:33:51Z</time>
      </trkpt>
      <trkpt lat="45.77685" lon="2.95218">
        <ele>1068.325073</ele>
        <time>2012-06-15T08:34:14Z</time>
      </trkpt>
      <trkpt lat="45.77645" lon="2.95244">
        <ele>1064.402344</ele>
        <time>2012-06-15T08:34:23Z</time>
      </trkpt>
      <trkpt lat="45.77603" lon="2.95264">
        <ele>1061.170044</ele>
        <time>2012-06-15T08:34:31Z</time>
      </trkpt>
      <trkpt lat="45.77561" lon="2.95257">
        <ele>1058.556885</ele>
        <time>2012-06-15T08:34:43Z</time>
      </trkpt>
      <trkpt lat="45.7753" lon="2.95218">
        <ele>1054.196289</ele>
        <time>2012-06-15T08:34:52Z</time>
      </trkpt>
      <trkpt lat="45.77526" lon="2.95216">
        <ele>1054.24707</ele>
        <time>2012-06-15T08:34:53Z</time>
      </trkpt>
      <trkpt lat="45.7743" lon="2.95187">
        <ele>1060.706787</ele>
        <time>2012-06-15T08:35:21Z</time>
      </trkpt>
      <trkpt lat="45.77387" lon="2.95195">
        <ele>1064.747559</ele>
        <time>2012-06-15T08:35:37Z</time>
      </trkpt>
      <trkpt lat="45.77344" lon="2.95198">
        <ele>1067.108765</ele>
        <time>2012-06-15T08:35:52Z</time>
      </trkpt>
      <trkpt lat="45.77299" lon="2.952">
        <ele>1069.703735</ele>
        <time>2012-06-15T08:36:11Z</time>
      </trkpt>
      <trkpt lat="45.77297" lon="2.952">
        <ele>1069.925049</ele>
        <time>2012-06-15T08:36:12Z</time>
      </trkpt>
      <trkpt lat="45.77214" lon="2.95226">
        <ele>1078.63147</ele>
        <time>2012-06-15T08:36:48Z</time>
      </trkpt>
      <trkpt lat="45.77171" lon="2.95236">
        <ele>1081.060059</ele>
        <time>2012-06-15T08:37:06Z</time>
      </trkpt>
      <trkpt lat="45.77128" lon="2.9525">
        <ele>1084.76001</ele>
        <time>2012-06-15T08:37:24Z</time>
      </trkpt>
      <trkpt lat="45.77126" lon="2.95251">
        <ele>1084.95813</ele>
        <time>2012-06-15T08:37:25Z</time>
      </trkpt>
      <trkpt lat="45.77045" lon="2.95295">
        <ele>1089.998779</ele>
        <time>2012-06-15T08:38:03Z</time>
      </trkpt>
      <trkpt lat="45.77003" lon="2.95317">
        <ele>1090.449219</ele>
        <time>2012-06-15T08:38:36Z</time>
      </trkpt>
      <trkpt lat="45.77001" lon="2.95317">
        <ele>1090.24646</ele>
        <time>2012-06-15T08:38:37Z</time>
      </trkpt>
      <trkpt lat="45.76876" lon="2.95352">
        <ele>1079.893677</ele>
        <time>2012-06-15T08:39:03Z</time>
      </trkpt>
      <trkpt lat="45.76835" lon="2.95367">
        <ele>1077.906616</ele>
        <time>2012-06-15T08:39:12Z</time>
      </trkpt>
      <trkpt lat="45.76786" lon="2.95379">
        <ele>1075.534668</ele>
        <time>2012-06-15T08:39:24Z</time>
      </trkpt>
      <trkpt lat="45.76704" lon="2.95382">
        <ele>1068.535034</ele>
        <time>2012-06-15T08:39:43Z</time>
      </trkpt>
      <trkpt lat="45.76637" lon="2.95413">
        <ele>1073.01123</ele>
        <time>2012-06-15T08:39:52Z</time>
      </trkpt>
      <trkpt lat="45.76584" lon="2.95463">
        <ele>1079.425903</ele>
        <time>2012-06-15T08:40:04Z</time>
      </trkpt>
      <trkpt lat="45.76489" lon="2.95501">
        <ele>1076.208374</ele>
        <time>2012-06-15T08:40:24Z</time>
      </trkpt>
      <trkpt lat="45.76447" lon="2.95511">
        <ele>1078.112793</ele>
        <time>2012-06-15T08:40:33Z</time>
      </trkpt>
      <trkpt lat="45.76405" lon="2.95535">
        <ele>1079.143188</ele>
        <time>2012-06-15T08:40:47Z</time>
      </trkpt>
      <trkpt lat="45.76361" lon="2.95485">
        <ele>1077.088745</ele>
        <time>2012-06-15T08:41:00Z</time>
      </trkpt>
      <trkpt lat="45.76346" lon="2.95456">
        <ele>1075.802856</ele>
        <time>2012-06-15T08:41:04Z</time>
      </trkpt>
      <trkpt lat="45.76316" lon="2.95358">
        <ele>1067.390015</ele>
        <time>2012-06-15T08:41:11Z</time>
      </trkpt>
      <trkpt lat="45.76265" lon="2.95228">
        <ele>1050.198608</ele>
        <time>2012-06-15T08:41:20Z</time>
      </trkpt>
      <trkpt lat="45.7615" lon="2.9507">
        <ele>1041.776611</ele>
        <time>2012-06-15T08:41:32Z</time>
      </trkpt>
      <trkpt lat="45.76086" lon="2.94995">
        <ele>1047.62146</ele>
        <time>2012-06-15T08:41:40Z</time>
      </trkpt>
      <trkpt lat="45.76037" lon="2.94974">
        <ele>1040.04248</ele>
        <time>2012-06-15T08:42:01Z</time>
      </trkpt>
      <trkpt lat="45.75982" lon="2.94941">
        <ele>1032.826172</ele>
        <time>2012-06-15T08:42:10Z</time>
      </trkpt>
      <trkpt lat="45.75978" lon="2.94938">
        <ele>1032.330566</ele>
        <time>2012-06-15T08:42:11Z</time>
      </trkpt>
      <trkpt lat="45.75917" lon="2.94871">
        <ele>1030.18396</ele>
        <time>2012-06-15T08:42:26Z</time>
      </trkpt>
      <trkpt lat="45.75888" lon="2.94824">
        <ele>1030.170532</ele>
        <time>2012-06-15T08:42:46Z</time>
      </trkpt>
      <trkpt lat="45.75862" lon="2.94762">
        <ele>1025.596558</ele>
        <time>2012-06-15T08:43:00Z</time>
      </trkpt>
      <trkpt lat="45.75848" lon="2.94699">
        <ele>1029.928467</ele>
        <time>2012-06-15T08:43:09Z</time>
      </trkpt>
      <trkpt lat="45.75843" lon="2.94676">
        <ele>1029.04126</ele>
        <time>2012-06-15T08:43:13Z</time>
      </trkpt>
      <trkpt lat="45.7583" lon="2.94551">
        <ele>1020.169128</ele>
        <time>2012-06-15T08:43:34Z</time>
      </trkpt>
      <trkpt lat="45.75826" lon="2.94468">
        <ele>1014.19635</ele>
        <time>2012-06-15T08:43:48Z</time>
      </trkpt>
      <trkpt lat="45.75811" lon="2.94393">
        <ele>1011.791626</ele>
        <time>2012-06-15T08:44:02Z</time>
      </trkpt>
      <trkpt lat="45.75786" lon="2.94298">
        <ele>1007.947815</ele>
        <time>2012-06-15T08:44:22Z</time>
      </trkpt>
      <trkpt lat="45.75789" lon="2.94286">
        <ele>1006.857483</ele>
        <time>2012-06-15T08:44:27Z</time>
      </trkpt>
      <trkpt lat="45.75729" lon="2.94121">
        <ele>997.204773</ele>
        <time>2012-06-15T08:44:57Z</time>
      </trkpt>
      <trkpt lat="45.7571" lon="2.94069">
        <ele>997.064087</ele>
        <time>2012-06-15T08:45:05Z</time>
      </trkpt>
      <trkpt lat="45.75662" lon="2.94037">
        <ele>996.612488</ele>
        <time>2012-06-15T08:45:17Z</time>
      </trkpt>
      <trkpt lat="45.75619" lon="2.94021">
        <ele>996.366272</ele>
        <time>2012-06-15T08:45:26Z</time>
      </trkpt>
      <trkpt lat="45.7554" lon="2.93979">
        <ele>995.445007</ele>
        <time>2012-06-15T08:45:41Z</time>
      </trkpt>
      <trkpt lat="45.75512" lon="2.93959">
        <ele>994.784973</ele>
        <time>2012-06-15T08:45:47Z</time>
      </trkpt>
      <trkpt lat="45.75436" lon="2.93918">
        <ele>992.60498</ele>
        <time>2012-06-15T08:46:03Z</time>
      </trkpt>
      <trkpt lat="45.75396" lon="2.93897">
        <ele>990.978149</ele>
        <time>2012-06-15T08:46:12Z</time>
      </trkpt>
      <trkpt lat="45.75358" lon="2.9388">
        <ele>988.661255</ele>
        <time>2012-06-15T08:46:18Z</time>
      </trkpt>
      <trkpt lat="45.75319" lon="2.93851">
        <ele>985.61377</ele>
        <time>2012-06-15T08:46:24Z</time>
      </trkpt>
      <trkpt lat="45.75282" lon="2.93815">
        <ele>982.564819</ele>
        <time>2012-06-15T08:46:30Z</time>
      </trkpt>
      <trkpt lat="45.75253" lon="2.93769">
        <ele>979.742798</ele>
        <time>2012-06-15T08:46:36Z</time>
      </trkpt>
      <trkpt lat="45.75211" lon="2.9375">
        <ele>979.45752</ele>
        <time>2012-06-15T08:46:43Z</time>
      </trkpt>
      <trkpt lat="45.75167" lon="2.93752">
        <ele>980.761108</ele>
        <time>2012-06-15T08:46:51Z</time>
      </trkpt>
      <trkpt lat="45.75162" lon="2.93753">
        <ele>980.937439</ele>
        <time>2012-06-15T08:46:52Z</time>
      </trkpt>
      <trkpt lat="45.7508" lon="2.93757">
        <ele>984.775024</ele>
        <time>2012-06-15T08:47:13Z</time>
      </trkpt>
      <trkpt lat="45.75036" lon="2.93756">
        <ele>986.248596</ele>
        <time>2012-06-15T08:47:26Z</time>
      </trkpt>
      <trkpt lat="45.74991" lon="2.93753">
        <ele>987.84375</ele>
        <time>2012-06-15T08:47:41Z</time>
      </trkpt>
      <trkpt lat="45.74948" lon="2.93753">
        <ele>989.59906</ele>
        <time>2012-06-15T08:47:55Z</time>
      </trkpt>
      <trkpt lat="45.74946" lon="2.93753">
        <ele>989.6745</ele>
        <time>2012-06-15T08:47:56Z</time>
      </trkpt>
      <trkpt lat="45.74866" lon="2.93726">
        <ele>992.734497</ele>
        <time>2012-06-15T08:48:26Z</time>
      </trkpt>
      <trkpt lat="45.7483" lon="2.93693">
        <ele>994.030273</ele>
        <time>2012-06-15T08:48:41Z</time>
      </trkpt>
      <trkpt lat="45.7479" lon="2.93667">
        <ele>995.294617</ele>
        <time>2012-06-15T08:48:54Z</time>
      </trkpt>
      <trkpt lat="45.74755" lon="2.93632">
        <ele>995.307129</ele>
        <time>2012-06-15T08:49:05Z</time>
      </trkpt>
      <trkpt lat="45.7475" lon="2.93628">
        <ele>995.236267</ele>
        <time>2012-06-15T08:49:06Z</time>
      </trkpt>
      <trkpt lat="45.74677" lon="2.93569">
        <ele>994.85376</ele>
        <time>2012-06-15T08:49:28Z</time>
      </trkpt>
      <trkpt lat="45.74639" lon="2.93542">
        <ele>995.837524</ele>
        <time>2012-06-15T08:49:42Z</time>
      </trkpt>
      <trkpt lat="45.746" lon="2.93521">
        <ele>997.005066</ele>
        <time>2012-06-15T08:49:53Z</time>
      </trkpt>
      <trkpt lat="45.74562" lon="2.93494">
        <ele>996.809509</ele>
        <time>2012-06-15T08:50:02Z</time>
      </trkpt>
      <trkpt lat="45.74524" lon="2.93466">
        <ele>996.752625</ele>
        <time>2012-06-15T08:50:13Z</time>
      </trkpt>
      <trkpt lat="45.74521" lon="2.93463">
        <ele>996.646667</ele>
        <time>2012-06-15T08:50:14Z</time>
      </trkpt>
      <trkpt lat="45.74494" lon="2.93345">
        <ele>993.605103</ele>
        <time>2012-06-15T08:50:48Z</time>
      </trkpt>
      <trkpt lat="45.74469" lon="2.93251">
        <ele>992.497498</ele>
        <time>2012-06-15T08:51:03Z</time>
      </trkpt>
      <trkpt lat="45.74454" lon="2.93106">
        <ele>987.662476</ele>
        <time>2012-06-15T08:51:27Z</time>
      </trkpt>
      <trkpt lat="45.74443" lon="2.93051">
        <ele>986.443542</ele>
        <time>2012-06-15T08:51:35Z</time>
      </trkpt>
      <trkpt lat="45.74446" lon="2.92863">
        <ele>981.205017</ele>
        <time>2012-06-15T08:52:00Z</time>
      </trkpt>
      <trkpt lat="45.74407" lon="2.92775">
        <ele>977.403198</ele>
        <time>2012-06-15T08:52:13Z</time>
      </trkpt>
      <trkpt lat="45.74385" lon="2.92709">
        <ele>977.045654</ele>
        <time>2012-06-15T08:52:21Z</time>
      </trkpt>
      <trkpt lat="45.74364" lon="2.9261">
        <ele>975.621277</ele>
        <time>2012-06-15T08:52:38Z</time>
      </trkpt>
      <trkpt lat="45.7435" lon="2.9256">
        <ele>974.840027</ele>
        <time>2012-06-15T08:52:46Z</time>
      </trkpt>
      <trkpt lat="45.74295" lon="2.92511">
        <ele>974.088745</ele>
        <time>2012-06-15T08:53:18Z</time>
      </trkpt>
      <trkpt lat="45.74253" lon="2.92533">
        <ele>974.648743</ele>
        <time>2012-06-15T08:53:40Z</time>
      </trkpt>
      <trkpt lat="45.74194" lon="2.92479">
        <ele>974.616272</ele>
        <time>2012-06-15T08:53:59Z</time>
      </trkpt>
      <trkpt lat="45.74181" lon="2.9247">
        <ele>974.471252</ele>
        <time>2012-06-15T08:54:03Z</time>
      </trkpt>
      <trkpt lat="45.74091" lon="2.92444">
        <ele>976.007874</ele>
        <time>2012-06-15T08:54:30Z</time>
      </trkpt>
      <trkpt lat="45.74016" lon="2.92513">
        <ele>980.052307</ele>
        <time>2012-06-15T08:55:04Z</time>
      </trkpt>
      <trkpt lat="45.73966" lon="2.92543">
        <ele>981.797241</ele>
        <time>2012-06-15T08:55:25Z</time>
      </trkpt>
      <trkpt lat="45.73889" lon="2.9262">
        <ele>986.329468</ele>
        <time>2012-06-15T08:55:54Z</time>
      </trkpt>
      <trkpt lat="45.73848" lon="2.92583">
        <ele>984.919128</ele>
        <time>2012-06-15T08:56:09Z</time>
      </trkpt>
      <trkpt lat="45.73821" lon="2.92526">
        <ele>980.785339</ele>
        <time>2012-06-15T08:56:24Z</time>
      </trkpt>
      <trkpt lat="45.7378" lon="2.92494">
        <ele>980.119629</ele>
        <time>2012-06-15T08:56:38Z</time>
      </trkpt>
      <trkpt lat="45.73747" lon="2.9245">
        <ele>979.878418</ele>
        <time>2012-06-15T08:56:52Z</time>
      </trkpt>
      <trkpt lat="45.73703" lon="2.92392">
        <ele>981.404114</ele>
        <time>2012-06-15T08:57:04Z</time>
      </trkpt>
      <trkpt lat="45.73637" lon="2.92343">
        <ele>986.238281</ele>
        <time>2012-06-15T08:57:26Z</time>
      </trkpt>
      <trkpt lat="45.73633" lon="2.92339">
        <ele>986.279968</ele>
        <time>2012-06-15T08:57:28Z</time>
      </trkpt>
      <trkpt lat="45.73555" lon="2.9232">
        <ele>986.017395</ele>
        <time>2012-06-15T08:57:52Z</time>
      </trkpt>
      <trkpt lat="45.73518" lon="2.92318">
        <ele>981.684692</ele>
        <time>2012-06-15T08:57:58Z</time>
      </trkpt>
      <trkpt lat="45.73448" lon="2.92401">
        <ele>972.765076</ele>
        <time>2012-06-15T08:58:14Z</time>
      </trkpt>
      <trkpt lat="45.73388" lon="2.92429">
        <ele>971.946106</ele>
        <time>2012-06-15T08:58:30Z</time>
      </trkpt>
      <trkpt lat="45.73372" lon="2.92414">
        <ele>971.682983</ele>
        <time>2012-06-15T08:58:38Z</time>
      </trkpt>
      <trkpt lat="45.73375" lon="2.92493">
        <ele>974.909973</ele>
        <time>2012-06-15T09:00:57Z</time>
      </trkpt>
      <trkpt lat="45.73382" lon="2.92611">
        <ele>978.683044</ele>
        <time>2012-06-15T09:01:27Z</time>
      </trkpt>
      <trkpt lat="45.73384" lon="2.92674">
        <ele>979.782471</ele>
        <time>2012-06-15T09:01:41Z</time>
      </trkpt>
      <trkpt lat="45.73385" lon="2.92736">
        <ele>981.505005</ele>
        <time>2012-06-15T09:01:55Z</time>
      </trkpt>
      <trkpt lat="45.7339" lon="2.928">
        <ele>984.440247</ele>
        <time>2012-06-15T09:02:10Z</time>
      </trkpt>
      <trkpt lat="45.73391" lon="2.92805">
        <ele>984.669128</ele>
        <time>2012-06-15T09:02:11Z</time>
      </trkpt>
      <trkpt lat="45.73324" lon="2.92832">
        <ele>981.150024</ele>
        <time>2012-06-15T09:02:36Z</time>
      </trkpt>
      <trkpt lat="45.73283" lon="2.92858">
        <ele>980.805481</ele>
        <time>2012-06-15T09:02:49Z</time>
      </trkpt>
      <trkpt lat="45.73283" lon="2.9292">
        <ele>983.901245</ele>
        <time>2012-06-15T09:03:07Z</time>
      </trkpt>
      <trkpt lat="45.73273" lon="2.92982">
        <ele>987.36499</ele>
        <time>2012-06-15T09:03:24Z</time>
      </trkpt>
      <trkpt lat="45.73273" lon="2.92985">
        <ele>987.590027</ele>
        <time>2012-06-15T09:03:25Z</time>
      </trkpt>
      <trkpt lat="45.73254" lon="2.93103">
        <ele>994.794983</ele>
        <time>2012-06-15T09:03:59Z</time>
      </trkpt>
      <trkpt lat="45.73241" lon="2.93162">
        <ele>997.856262</ele>
        <time>2012-06-15T09:07:12Z</time>
      </trkpt>
      <trkpt lat="45.73241" lon="2.93165">
        <ele>998.01123</ele>
        <time>2012-06-15T09:07:13Z</time>
      </trkpt>
      <trkpt lat="45.73205" lon="2.93277">
        <ele>1004.115234</ele>
        <time>2012-06-15T09:07:48Z</time>
      </trkpt>
      <trkpt lat="45.73188" lon="2.93335">
        <ele>1007.409973</ele>
        <time>2012-06-15T09:08:07Z</time>
      </trkpt>
      <trkpt lat="45.73171" lon="2.93394">
        <ele>1011.090027</ele>
        <time>2012-06-15T09:08:30Z</time>
      </trkpt>
      <trkpt lat="45.73171" lon="2.93397">
        <ele>1011.206238</ele>
        <time>2012-06-15T09:08:31Z</time>
      </trkpt>
      <trkpt lat="45.73127" lon="2.93504">
        <ele>1016.98999</ele>
        <time>2012-06-15T09:09:13Z</time>
      </trkpt>
      <trkpt lat="45.73086" lon="2.93525">
        <ele>1018.340027</ele>
        <time>2012-06-15T09:09:30Z</time>
      </trkpt>
      <trkpt lat="45.73046" lon="2.93551">
        <ele>1019.97998</ele>
        <time>2012-06-15T09:09:44Z</time>
      </trkpt>
      <trkpt lat="45.73043" lon="2.93553">
        <ele>1020.094971</ele>
        <time>2012-06-15T09:09:45Z</time>
      </trkpt>
      <trkpt lat="45.72964" lon="2.93593">
        <ele>1024.512939</ele>
        <time>2012-06-15T09:10:12Z</time>
      </trkpt>
      <trkpt lat="45.72923" lon="2.93616">
        <ele>1027.262573</ele>
        <time>2012-06-15T09:10:27Z</time>
      </trkpt>
      <trkpt lat="45.72882" lon="2.93638">
        <ele>1029.894653</ele>
        <time>2012-06-15T09:10:41Z</time>
      </trkpt>
      <trkpt lat="45.72845" lon="2.93672">
        <ele>1032.70752</ele>
        <time>2012-06-15T09:10:55Z</time>
      </trkpt>
      <trkpt lat="45.72843" lon="2.93675">
        <ele>1032.900024</ele>
        <time>2012-06-15T09:10:56Z</time>
      </trkpt>
      <trkpt lat="45.72778" lon="2.9375">
        <ele>1036.52356</ele>
        <time>2012-06-15T09:11:22Z</time>
      </trkpt>
      <trkpt lat="45.72746" lon="2.9379">
        <ele>1038.60791</ele>
        <time>2012-06-15T09:11:35Z</time>
      </trkpt>
      <trkpt lat="45.72711" lon="2.93829">
        <ele>1040.479492</ele>
        <time>2012-06-15T09:11:49Z</time>
      </trkpt>
      <trkpt lat="45.72675" lon="2.93866">
        <ele>1042.849976</ele>
        <time>2012-06-15T09:12:03Z</time>
      </trkpt>
      <trkpt lat="45.72672" lon="2.93868">
        <ele>1042.984985</ele>
        <time>2012-06-15T09:12:04Z</time>
      </trkpt>
      <trkpt lat="45.72602" lon="2.93936">
        <ele>1047.036255</ele>
        <time>2012-06-15T09:12:30Z</time>
      </trkpt>
      <trkpt lat="45.72571" lon="2.93976">
        <ele>1048.174927</ele>
        <time>2012-06-15T09:12:42Z</time>
      </trkpt>
      <trkpt lat="45.72545" lon="2.94026">
        <ele>1049.713501</ele>
        <time>2012-06-15T09:12:55Z</time>
      </trkpt>
      <trkpt lat="45.72521" lon="2.94075">
        <ele>1051.739014</ele>
        <time>2012-06-15T09:13:07Z</time>
      </trkpt>
      <trkpt lat="45.72519" lon="2.94079">
        <ele>1051.893555</ele>
        <time>2012-06-15T09:13:08Z</time>
      </trkpt>
      <trkpt lat="45.72462" lon="2.94164">
        <ele>1056.814941</ele>
        <time>2012-06-15T09:13:33Z</time>
      </trkpt>
      <trkpt lat="45.72421" lon="2.94188">
        <ele>1056.63208</ele>
        <time>2012-06-15T09:13:47Z</time>
      </trkpt>
      <trkpt lat="45.72382" lon="2.94216">
        <ele>1056.546509</ele>
        <time>2012-06-15T09:14:00Z</time>
      </trkpt>
      <trkpt lat="45.72347" lon="2.94255">
        <ele>1059.030762</ele>
        <time>2012-06-15T09:14:14Z</time>
      </trkpt>
      <trkpt lat="45.72345" lon="2.94258">
        <ele>1059.277954</ele>
        <time>2012-06-15T09:14:15Z</time>
      </trkpt>
      <trkpt lat="45.72292" lon="2.94351">
        <ele>1065.182495</ele>
        <time>2012-06-15T09:14:43Z</time>
      </trkpt>
      <trkpt lat="45.72272" lon="2.94405">
        <ele>1067.036621</ele>
        <time>2012-06-15T09:14:57Z</time>
      </trkpt>
      <trkpt lat="45.72256" lon="2.94463">
        <ele>1068.37854</ele>
        <time>2012-06-15T09:15:13Z</time>
      </trkpt>
      <trkpt lat="45.72249" lon="2.94525">
        <ele>1072.840454</ele>
        <time>2012-06-15T09:15:28Z</time>
      </trkpt>
      <trkpt lat="45.72249" lon="2.94529">
        <ele>1073.23877</ele>
        <time>2012-06-15T09:15:29Z</time>
      </trkpt>
      <trkpt lat="45.72217" lon="2.9464">
        <ele>1076.132813</ele>
        <time>2012-06-15T09:15:58Z</time>
      </trkpt>
      <trkpt lat="45.72198" lon="2.94696">
        <ele>1078.095703</ele>
        <time>2012-06-15T09:16:13Z</time>
      </trkpt>
      <trkpt lat="45.72176" lon="2.94748">
        <ele>1078.699341</ele>
        <time>2012-06-15T09:16:28Z</time>
      </trkpt>
      <trkpt lat="45.72158" lon="2.94805">
        <ele>1083.317871</ele>
        <time>2012-06-15T09:16:43Z</time>
      </trkpt>
      <trkpt lat="45.72156" lon="2.94809">
        <ele>1083.502075</ele>
        <time>2012-06-15T09:16:44Z</time>
      </trkpt>
      <trkpt lat="45.72113" lon="2.94915">
        <ele>1086.13623</ele>
        <time>2012-06-15T09:17:15Z</time>
      </trkpt>
      <trkpt lat="45.72126" lon="2.94973">
        <ele>1088.01001</ele>
        <time>2012-06-15T09:17:31Z</time>
      </trkpt>
      <trkpt lat="45.72153" lon="2.95022">
        <ele>1093.007202</ele>
        <time>2012-06-15T09:17:47Z</time>
      </trkpt>
      <trkpt lat="45.72154" lon="2.95025">
        <ele>1093.203735</ele>
        <time>2012-06-15T09:17:48Z</time>
      </trkpt>
      <trkpt lat="45.72199" lon="2.95123">
        <ele>1096.657715</ele>
        <time>2012-06-15T09:18:14Z</time>
      </trkpt>
      <trkpt lat="45.72222" lon="2.95177">
        <ele>1096.091553</ele>
        <time>2012-06-15T09:18:28Z</time>
      </trkpt>
      <trkpt lat="45.72174" lon="2.95194">
        <ele>1092.957642</ele>
        <time>2012-06-15T09:18:51Z</time>
      </trkpt>
      <trkpt lat="45.72168" lon="2.95188">
        <ele>1092.451538</ele>
        <time>2012-06-15T09:18:53Z</time>
      </trkpt>
      <trkpt lat="45.71929" lon="2.95067">
        <ele>1075.823975</ele>
        <time>2012-06-15T09:23:57Z</time>
      </trkpt>
      <trkpt lat="45.71751" lon="2.94924">
        <ele>1070.062988</ele>
        <time>2012-06-15T09:28:02Z</time>
      </trkpt>
      <trkpt lat="45.71713" lon="2.94887">
        <ele>1069.920776</ele>
        <time>2012-06-15T09:28:15Z</time>
      </trkpt>
      <trkpt lat="45.71661" lon="2.94851">
        <ele>1067.901611</ele>
        <time>2012-06-15T09:28:26Z</time>
      </trkpt>
      <trkpt lat="45.71616" lon="2.94837">
        <ele>1064.726074</ele>
        <time>2012-06-15T09:28:34Z</time>
      </trkpt>
      <trkpt lat="45.71561" lon="2.94827">
        <ele>1058.848267</ele>
        <time>2012-06-15T09:28:47Z</time>
      </trkpt>
      <trkpt lat="45.71522" lon="2.94815">
        <ele>1055.008911</ele>
        <time>2012-06-15T09:28:55Z</time>
      </trkpt>
      <trkpt lat="45.71479" lon="2.94803">
        <ele>1051.815796</ele>
        <time>2012-06-15T09:29:03Z</time>
      </trkpt>
      <trkpt lat="45.71436" lon="2.94788">
        <ele>1050.388794</ele>
        <time>2012-06-15T09:29:15Z</time>
      </trkpt>
      <trkpt lat="45.714" lon="2.94751">
        <ele>1049.224976</ele>
        <time>2012-06-15T09:29:26Z</time>
      </trkpt>
      <trkpt lat="45.71348" lon="2.94724">
        <ele>1047.45752</ele>
        <time>2012-06-15T09:35:42Z</time>
      </trkpt>
      <trkpt lat="45.71309" lon="2.94701">
        <ele>1048.602417</ele>
        <time>2012-06-15T09:35:55Z</time>
      </trkpt>
      <trkpt lat="45.71269" lon="2.94677">
        <ele>1049.268555</ele>
        <time>2012-06-15T09:36:09Z</time>
      </trkpt>
      <trkpt lat="45.71229" lon="2.9465">
        <ele>1049.285156</ele>
        <time>2012-06-15T09:36:23Z</time>
      </trkpt>
      <trkpt lat="45.71227" lon="2.94647">
        <ele>1049.413818</ele>
        <time>2012-06-15T09:36:24Z</time>
      </trkpt>
      <trkpt lat="45.71169" lon="2.94561">
        <ele>1050.085449</ele>
        <time>2012-06-15T09:36:48Z</time>
      </trkpt>
      <trkpt lat="45.7114" lon="2.94513">
        <ele>1049.609985</ele>
        <time>2012-06-15T09:37:00Z</time>
      </trkpt>
      <trkpt lat="45.71113" lon="2.94468">
        <ele>1048.405029</ele>
        <time>2012-06-15T09:37:10Z</time>
      </trkpt>
      <trkpt lat="45.71089" lon="2.94416">
        <ele>1046.972534</ele>
        <time>2012-06-15T09:37:22Z</time>
      </trkpt>
      <trkpt lat="45.71074" lon="2.94363">
        <ele>1046.324951</ele>
        <time>2012-06-15T09:37:30Z</time>
      </trkpt>
      <trkpt lat="45.71071" lon="2.94356">
        <ele>1046.267456</ele>
        <time>2012-06-15T09:37:31Z</time>
      </trkpt>
      <trkpt lat="45.71016" lon="2.94354">
        <ele>1045.032471</ele>
        <time>2012-06-15T09:37:49Z</time>
      </trkpt>
      <trkpt lat="45.7099" lon="2.94405">
        <ele>1044.474976</ele>
        <time>2012-06-15T09:37:58Z</time>
      </trkpt>
      <trkpt lat="45.70972" lon="2.94459">
        <ele>1044.0625</ele>
        <time>2012-06-15T09:38:07Z</time>
      </trkpt>
      <trkpt lat="45.70955" lon="2.94518">
        <ele>1043.692505</ele>
        <time>2012-06-15T09:38:18Z</time>
      </trkpt>
      <trkpt lat="45.70923" lon="2.94568">
        <ele>1042.987549</ele>
        <time>2012-06-15T09:38:29Z</time>
      </trkpt>
      <trkpt lat="45.70893" lon="2.94631">
        <ele>1043.680054</ele>
        <time>2012-06-15T09:38:41Z</time>
      </trkpt>
      <trkpt lat="45.70888" lon="2.94639">
        <ele>1043.829956</ele>
        <time>2012-06-15T09:38:43Z</time>
      </trkpt>
      <trkpt lat="45.70818" lon="2.94729">
        <ele>1043.911255</ele>
        <time>2012-06-15T09:39:00Z</time>
      </trkpt>
      <trkpt lat="45.70793" lon="2.94776">
        <ele>1044.088745</ele>
        <time>2012-06-15T09:39:08Z</time>
      </trkpt>
      <trkpt lat="45.70761" lon="2.94814">
        <ele>1044.226196</ele>
        <time>2012-06-15T09:39:16Z</time>
      </trkpt>
      <trkpt lat="45.70731" lon="2.94858">
        <ele>1043.522461</ele>
        <time>2012-06-15T09:39:24Z</time>
      </trkpt>
      <trkpt lat="45.7071" lon="2.94929">
        <ele>1041.60498</ele>
        <time>2012-06-15T09:39:34Z</time>
      </trkpt>
      <trkpt lat="45.70683" lon="2.94991">
        <ele>1039.567505</ele>
        <time>2012-06-15T09:39:43Z</time>
      </trkpt>
      <trkpt lat="45.70678" lon="2.95001">
        <ele>1039.264282</ele>
        <time>2012-06-15T09:39:45Z</time>
      </trkpt>
      <trkpt lat="45.7068" lon="2.95162">
        <ele>1035.624146</ele>
        <time>2012-06-15T09:40:04Z</time>
      </trkpt>
      <trkpt lat="45.70639" lon="2.95238">
        <ele>1032.924316</ele>
        <time>2012-06-15T09:40:16Z</time>
      </trkpt>
      <trkpt lat="45.70598" lon="2.95279">
        <ele>1025.021118</ele>
        <time>2012-06-15T09:40:41Z</time>
      </trkpt>
      <trkpt lat="45.70592" lon="2.95298">
        <ele>1023.5354</ele>
        <time>2012-06-15T09:40:49Z</time>
      </trkpt>
      <trkpt lat="45.70483" lon="2.95447">
        <ele>1002.540039</ele>
        <time>2012-06-15T09:41:26Z</time>
      </trkpt>
      <trkpt lat="45.70466" lon="2.95504">
        <ele>997.594971</ele>
        <time>2012-06-15T09:41:34Z</time>
      </trkpt>
      <trkpt lat="45.70433" lon="2.956">
        <ele>992.450012</ele>
        <time>2012-06-15T09:41:44Z</time>
      </trkpt>
      <trkpt lat="45.70401" lon="2.95647">
        <ele>991.340759</ele>
        <time>2012-06-15T09:41:50Z</time>
      </trkpt>
      <trkpt lat="45.70395" lon="2.95654">
        <ele>991.068237</ele>
        <time>2012-06-15T09:41:51Z</time>
      </trkpt>
      <trkpt lat="45.70358" lon="2.95753">
        <ele>990.770081</ele>
        <time>2012-06-15T09:42:02Z</time>
      </trkpt>
      <trkpt lat="45.70335" lon="2.95807">
        <ele>988.765015</ele>
        <time>2012-06-15T09:42:09Z</time>
      </trkpt>
      <trkpt lat="45.70306" lon="2.95853">
        <ele>987.098389</ele>
        <time>2012-06-15T09:42:17Z</time>
      </trkpt>
      <trkpt lat="45.7028" lon="2.95902">
        <ele>987.706238</ele>
        <time>2012-06-15T09:43:21Z</time>
      </trkpt>
      <trkpt lat="45.70279" lon="2.95906">
        <ele>987.891968</ele>
        <time>2012-06-15T09:43:22Z</time>
      </trkpt>
      <trkpt lat="45.70218" lon="2.95984">
        <ele>989.253723</ele>
        <time>2012-06-15T09:43:47Z</time>
      </trkpt>
      <trkpt lat="45.70197" lon="2.96033">
        <ele>989.920471</ele>
        <time>2012-06-15T09:43:56Z</time>
      </trkpt>
      <trkpt lat="45.70174" lon="2.9608">
        <ele>991.82843</ele>
        <time>2012-06-15T09:44:03Z</time>
      </trkpt>
      <trkpt lat="45.70144" lon="2.9612">
        <ele>988.182251</ele>
        <time>2012-06-15T09:44:11Z</time>
      </trkpt>
      <trkpt lat="45.70114" lon="2.96167">
        <ele>989.648254</ele>
        <time>2012-06-15T09:44:20Z</time>
      </trkpt>
      <trkpt lat="45.70091" lon="2.96218">
        <ele>991.974365</ele>
        <time>2012-06-15T09:44:29Z</time>
      </trkpt>
      <trkpt lat="45.70089" lon="2.96222">
        <ele>992.194275</ele>
        <time>2012-06-15T09:44:30Z</time>
      </trkpt>
      <trkpt lat="45.70062" lon="2.96338">
        <ele>995.979919</ele>
        <time>2012-06-15T09:44:50Z</time>
      </trkpt>
      <trkpt lat="45.70058" lon="2.964">
        <ele>992.712524</ele>
        <time>2012-06-15T09:44:58Z</time>
      </trkpt>
      <trkpt lat="45.70057" lon="2.96463">
        <ele>986.739258</ele>
        <time>2012-06-15T09:45:08Z</time>
      </trkpt>
      <trkpt lat="45.7007" lon="2.96517">
        <ele>982.979309</ele>
        <time>2012-06-15T09:45:13Z</time>
      </trkpt>
      <trkpt lat="45.70088" lon="2.96573">
        <ele>980.036194</ele>
        <time>2012-06-15T09:45:19Z</time>
      </trkpt>
      <trkpt lat="45.7011" lon="2.96623">
        <ele>977.45282</ele>
        <time>2012-06-15T09:45:24Z</time>
      </trkpt>
      <trkpt lat="45.70124" lon="2.96681">
        <ele>974.974976</ele>
        <time>2012-06-15T09:45:30Z</time>
      </trkpt>
      <trkpt lat="45.70127" lon="2.9669">
        <ele>974.700012</ele>
        <time>2012-06-15T09:45:31Z</time>
      </trkpt>
      <trkpt lat="45.70183" lon="2.96757">
        <ele>977.579346</ele>
        <time>2012-06-15T09:45:42Z</time>
      </trkpt>
      <trkpt lat="45.70221" lon="2.96781">
        <ele>979.724976</ele>
        <time>2012-06-15T09:45:49Z</time>
      </trkpt>
      <trkpt lat="45.70259" lon="2.96801">
        <ele>981.611267</ele>
        <time>2012-06-15T09:45:55Z</time>
      </trkpt>
      <trkpt lat="45.70297" lon="2.96825">
        <ele>983.319763</ele>
        <time>2012-06-15T09:46:01Z</time>
      </trkpt>
      <trkpt lat="45.70334" lon="2.9685">
        <ele>985.362244</ele>
        <time>2012-06-15T09:46:07Z</time>
      </trkpt>
      <trkpt lat="45.70375" lon="2.96876">
        <ele>983.664124</ele>
        <time>2012-06-15T09:46:16Z</time>
      </trkpt>
      <trkpt lat="45.7041" lon="2.96896">
        <ele>979.657471</ele>
        <time>2012-06-15T09:46:28Z</time>
      </trkpt>
      <trkpt lat="45.70443" lon="2.96917">
        <ele>976.788086</ele>
        <time>2012-06-15T09:46:32Z</time>
      </trkpt>
      <trkpt lat="45.70451" lon="2.96924">
        <ele>975.718384</ele>
        <time>2012-06-15T09:46:33Z</time>
      </trkpt>
      <trkpt lat="45.70512" lon="2.96981">
        <ele>971.333618</ele>
        <time>2012-06-15T09:46:40Z</time>
      </trkpt>
      <trkpt lat="45.70548" lon="2.97016">
        <ele>969.133057</ele>
        <time>2012-06-15T09:46:44Z</time>
      </trkpt>
      <trkpt lat="45.70585" lon="2.9705">
        <ele>966.607483</ele>
        <time>2012-06-15T09:46:48Z</time>
      </trkpt>
      <trkpt lat="45.70625" lon="2.97079">
        <ele>964.514282</ele>
        <time>2012-06-15T09:46:52Z</time>
      </trkpt>
      <trkpt lat="45.7067" lon="2.97081">
        <ele>964.039612</ele>
        <time>2012-06-15T09:46:56Z</time>
      </trkpt>
      <trkpt lat="45.70713" lon="2.97068">
        <ele>963.598389</ele>
        <time>2012-06-15T09:47:00Z</time>
      </trkpt>
      <trkpt lat="45.70756" lon="2.97077">
        <ele>963.293823</ele>
        <time>2012-06-15T09:47:04Z</time>
      </trkpt>
      <trkpt lat="45.7079" lon="2.97108">
        <ele>963.004211</ele>
        <time>2012-06-15T09:47:08Z</time>
      </trkpt>
      <trkpt lat="45.70823" lon="2.97137">
        <ele>964.516052</ele>
        <time>2012-06-15T09:47:12Z</time>
      </trkpt>
      <trkpt lat="45.70853" lon="2.97174">
        <ele>965.268433</ele>
        <time>2012-06-15T09:47:17Z</time>
      </trkpt>
      <trkpt lat="45.7089" lon="2.97203">
        <ele>965.6474</ele>
        <time>2012-06-15T09:47:24Z</time>
      </trkpt>
      <trkpt lat="45.70926" lon="2.97218">
        <ele>965.242493</ele>
        <time>2012-06-15T09:47:30Z</time>
      </trkpt>
      <trkpt lat="45.70969" lon="2.97228">
        <ele>964.989624</ele>
        <time>2012-06-15T09:47:35Z</time>
      </trkpt>
      <trkpt lat="45.70978" lon="2.97229">
        <ele>965.099731</ele>
        <time>2012-06-15T09:47:36Z</time>
      </trkpt>
      <trkpt lat="45.71075" lon="2.97247">
        <ele>964.094971</ele>
        <time>2012-06-15T09:47:54Z</time>
      </trkpt>
      <trkpt lat="45.71117" lon="2.97241">
        <ele>962.473938</ele>
        <time>2012-06-15T09:48:05Z</time>
      </trkpt>
      <trkpt lat="45.71161" lon="2.97228">
        <ele>959.704224</ele>
        <time>2012-06-15T09:48:13Z</time>
      </trkpt>
      <trkpt lat="45.71201" lon="2.97207">
        <ele>960.289917</ele>
        <time>2012-06-15T09:48:25Z</time>
      </trkpt>
      <trkpt lat="45.71235" lon="2.97171">
        <ele>964.065002</ele>
        <time>2012-06-15T09:48:36Z</time>
      </trkpt>
      <trkpt lat="45.71273" lon="2.97145">
        <ele>968.457703</ele>
        <time>2012-06-15T09:48:45Z</time>
      </trkpt>
      <trkpt lat="45.71277" lon="2.97143">
        <ele>968.619019</ele>
        <time>2012-06-15T09:48:46Z</time>
      </trkpt>
      <trkpt lat="45.71353" lon="2.97109">
        <ele>966.649353</ele>
        <time>2012-06-15T09:49:04Z</time>
      </trkpt>
      <trkpt lat="45.7139" lon="2.97126">
        <ele>963.638733</ele>
        <time>2012-06-15T09:49:10Z</time>
      </trkpt>
      <trkpt lat="45.71429" lon="2.97137">
        <ele>960.832703</ele>
        <time>2012-06-15T09:49:15Z</time>
      </trkpt>
      <trkpt lat="45.71471" lon="2.97114">
        <ele>956.900757</ele>
        <time>2012-06-15T09:49:20Z</time>
      </trkpt>
      <trkpt lat="45.71509" lon="2.97098">
        <ele>952.916626</ele>
        <time>2012-06-15T09:49:25Z</time>
      </trkpt>
      <trkpt lat="45.71549" lon="2.97118">
        <ele>951.514771</ele>
        <time>2012-06-15T09:49:30Z</time>
      </trkpt>
      <trkpt lat="45.7158" lon="2.97078">
        <ele>946.941467</ele>
        <time>2012-06-15T09:49:37Z</time>
      </trkpt>
      <trkpt lat="45.71598" lon="2.97024">
        <ele>945.751404</ele>
        <time>2012-06-15T09:49:44Z</time>
      </trkpt>
      <trkpt lat="45.7164" lon="2.97009">
        <ele>945.523804</ele>
        <time>2012-06-15T09:49:51Z</time>
      </trkpt>
      <trkpt lat="45.71646" lon="2.97008">
        <ele>945.59375</ele>
        <time>2012-06-15T09:49:52Z</time>
      </trkpt>
      <trkpt lat="45.71726" lon="2.9701">
        <ele>945.206604</ele>
        <time>2012-06-15T09:50:09Z</time>
      </trkpt>
      <trkpt lat="45.71771" lon="2.9701">
        <ele>944.86499</ele>
        <time>2012-06-15T09:50:19Z</time>
      </trkpt>
      <trkpt lat="45.71811" lon="2.97019">
        <ele>944.627502</ele>
        <time>2012-06-15T09:50:28Z</time>
      </trkpt>
      <trkpt lat="45.71855" lon="2.97029">
        <ele>945.3125</ele>
        <time>2012-06-15T09:50:38Z</time>
      </trkpt>
      <trkpt lat="45.71897" lon="2.9704">
        <ele>945.948303</ele>
        <time>2012-06-15T09:50:49Z</time>
      </trkpt>
      <trkpt lat="45.7194" lon="2.97052">
        <ele>948.388306</ele>
        <time>2012-06-15T09:51:01Z</time>
      </trkpt>
      <trkpt lat="45.71944" lon="2.97053">
        <ele>948.597473</ele>
        <time>2012-06-15T09:51:02Z</time>
      </trkpt>
      <trkpt lat="45.72022" lon="2.97085">
        <ele>951.087524</ele>
        <time>2012-06-15T09:51:26Z</time>
      </trkpt>
      <trkpt lat="45.72065" lon="2.97099">
        <ele>953.275024</ele>
        <time>2012-06-15T09:51:39Z</time>
      </trkpt>
      <trkpt lat="45.72107" lon="2.97112">
        <ele>955.031189</ele>
        <time>2012-06-15T09:51:51Z</time>
      </trkpt>
      <trkpt lat="45.72149" lon="2.97122">
        <ele>956.632507</ele>
        <time>2012-06-15T09:52:03Z</time>
      </trkpt>
      <trkpt lat="45.72152" lon="2.97123">
        <ele>956.73999</ele>
        <time>2012-06-15T09:52:04Z</time>
      </trkpt>
      <trkpt lat="45.72233" lon="2.97144">
        <ele>960.093628</ele>
        <time>2012-06-15T09:52:29Z</time>
      </trkpt>
      <trkpt lat="45.72274" lon="2.97162">
        <ele>961.169983</ele>
        <time>2012-06-15T09:52:42Z</time>
      </trkpt>
      <trkpt lat="45.72316" lon="2.97172">
        <ele>963.894653</ele>
        <time>2012-06-15T09:52:56Z</time>
      </trkpt>
      <trkpt lat="45.72359" lon="2.97189">
        <ele>964.994995</ele>
        <time>2012-06-15T09:53:10Z</time>
      </trkpt>
      <trkpt lat="45.72362" lon="2.97191">
        <ele>964.943726</ele>
        <time>2012-06-15T09:53:11Z</time>
      </trkpt>
      <trkpt lat="45.72443" lon="2.9721">
        <ele>967.147217</ele>
        <time>2012-06-15T09:53:34Z</time>
      </trkpt>
      <trkpt lat="45.72487" lon="2.97203">
        <ele>968.315002</ele>
        <time>2012-06-15T09:53:45Z</time>
      </trkpt>
      <trkpt lat="45.7253" lon="2.97193">
        <ele>969.297485</ele>
        <time>2012-06-15T09:53:56Z</time>
      </trkpt>
      <trkpt lat="45.72569" lon="2.9717">
        <ele>971.532471</ele>
        <time>2012-06-15T09:54:07Z</time>
      </trkpt>
      <trkpt lat="45.7261" lon="2.97163">
        <ele>972.843079</ele>
        <time>2012-06-15T09:54:19Z</time>
      </trkpt>
      <trkpt lat="45.72614" lon="2.97164">
        <ele>972.862366</ele>
        <time>2012-06-15T09:54:20Z</time>
      </trkpt>
      <trkpt lat="45.72695" lon="2.97138">
        <ele>973.999084</ele>
        <time>2012-06-15T09:54:41Z</time>
      </trkpt>
      <trkpt lat="45.72737" lon="2.97122">
        <ele>973.854431</ele>
        <time>2012-06-15T09:54:51Z</time>
      </trkpt>
      <trkpt lat="45.72774" lon="2.97096">
        <ele>974.151855</ele>
        <time>2012-06-15T09:55:01Z</time>
      </trkpt>
      <trkpt lat="45.72814" lon="2.9708">
        <ele>974.77124</ele>
        <time>2012-06-15T09:55:11Z</time>
      </trkpt>
      <trkpt lat="45.72857" lon="2.97082">
        <ele>975.283936</ele>
        <time>2012-06-15T09:55:21Z</time>
      </trkpt>
      <trkpt lat="45.72861" lon="2.97083">
        <ele>975.354858</ele>
        <time>2012-06-15T09:55:22Z</time>
      </trkpt>
      <trkpt lat="45.72938" lon="2.97089">
        <ele>975.309998</ele>
        <time>2012-06-15T09:55:39Z</time>
      </trkpt>
      <trkpt lat="45.72975" lon="2.97058">
        <ele>974.977478</ele>
        <time>2012-06-15T09:55:52Z</time>
      </trkpt>
      <trkpt lat="45.73008" lon="2.97024">
        <ele>975.577148</ele>
        <time>2012-06-15T09:56:03Z</time>
      </trkpt>
      <trkpt lat="45.73052" lon="2.97028">
        <ele>975.624451</ele>
        <time>2012-06-15T09:56:13Z</time>
      </trkpt>
      <trkpt lat="45.73091" lon="2.97046">
        <ele>975.727478</ele>
        <time>2012-06-15T09:56:22Z</time>
      </trkpt>
      <trkpt lat="45.73095" lon="2.97048">
        <ele>975.737488</ele>
        <time>2012-06-15T09:56:23Z</time>
      </trkpt>
      <trkpt lat="45.73164" lon="2.97108">
        <ele>975.567505</ele>
        <time>2012-06-15T09:56:42Z</time>
      </trkpt>
      <trkpt lat="45.73204" lon="2.97127">
        <ele>976.751648</ele>
        <time>2012-06-15T09:56:51Z</time>
      </trkpt>
      <trkpt lat="45.73236" lon="2.97083">
        <ele>978.835022</ele>
        <time>2012-06-15T09:57:14Z</time>
      </trkpt>
      <trkpt lat="45.73274" lon="2.97051">
        <ele>980.622498</ele>
        <time>2012-06-15T09:57:25Z</time>
      </trkpt>
      <trkpt lat="45.73277" lon="2.97047">
        <ele>980.747498</ele>
        <time>2012-06-15T09:57:26Z</time>
      </trkpt>
      <trkpt lat="45.73338" lon="2.96968">
        <ele>983.3526</ele>
        <time>2012-06-15T09:57:46Z</time>
      </trkpt>
      <trkpt lat="45.73376" lon="2.96937">
        <ele>984.664978</ele>
        <time>2012-06-15T09:57:57Z</time>
      </trkpt>
      <trkpt lat="45.73411" lon="2.96898">
        <ele>986.254028</ele>
        <time>2012-06-15T09:58:08Z</time>
      </trkpt>
      <trkpt lat="45.73444" lon="2.96857">
        <ele>987.50885</ele>
        <time>2012-06-15T09:58:19Z</time>
      </trkpt>
      <trkpt lat="45.73477" lon="2.96819">
        <ele>988.737549</ele>
        <time>2012-06-15T09:58:30Z</time>
      </trkpt>
      <trkpt lat="45.7348" lon="2.96815">
        <ele>988.85498</ele>
        <time>2012-06-15T09:58:31Z</time>
      </trkpt>
      <trkpt lat="45.73532" lon="2.96727">
        <ele>992.14502</ele>
        <time>2012-06-15T09:58:52Z</time>
      </trkpt>
      <trkpt lat="45.73562" lon="2.96681">
        <ele>992.871277</ele>
        <time>2012-06-15T09:59:04Z</time>
      </trkpt>
      <trkpt lat="45.73593" lon="2.96642">
        <ele>993.48877</ele>
        <time>2012-06-15T09:59:15Z</time>
      </trkpt>
      <trkpt lat="45.7363" lon="2.96607">
        <ele>994.085022</ele>
        <time>2012-06-15T09:59:27Z</time>
      </trkpt>
      <trkpt lat="45.7366" lon="2.96564">
        <ele>995.350037</ele>
        <time>2012-06-15T09:59:38Z</time>
      </trkpt>
      <trkpt lat="45.73663" lon="2.9656">
        <ele>995.444946</ele>
        <time>2012-06-15T09:59:39Z</time>
      </trkpt>
      <trkpt lat="45.73729" lon="2.965">
        <ele>995.715027</ele>
        <time>2012-06-15T09:59:59Z</time>
      </trkpt>
      <trkpt lat="45.73766" lon="2.96531">
        <ele>994.799988</ele>
        <time>2012-06-15T10:00:08Z</time>
      </trkpt>
      <trkpt lat="45.73804" lon="2.96561">
        <ele>993.557861</ele>
        <time>2012-06-15T10:00:17Z</time>
      </trkpt>
      <trkpt lat="45.7384" lon="2.96584">
        <ele>992.91748</ele>
        <time>2012-06-15T10:00:24Z</time>
      </trkpt>
      <trkpt lat="45.73882" lon="2.96599">
        <ele>991.905212</ele>
        <time>2012-06-15T10:00:31Z</time>
      </trkpt>
      <trkpt lat="45.73926" lon="2.96593">
        <ele>988.266052</ele>
        <time>2012-06-15T10:00:38Z</time>
      </trkpt>
      <trkpt lat="45.73964" lon="2.96605">
        <ele>983.104187</ele>
        <time>2012-06-15T10:00:43Z</time>
      </trkpt>
      <trkpt lat="45.73973" lon="2.96609">
        <ele>981.987366</ele>
        <time>2012-06-15T10:00:44Z</time>
      </trkpt>
      <trkpt lat="45.74044" lon="2.96626">
        <ele>975.96875</ele>
        <time>2012-06-15T10:00:57Z</time>
      </trkpt>
      <trkpt lat="45.74082" lon="2.96648">
        <ele>973.993164</ele>
        <time>2012-06-15T10:01:07Z</time>
      </trkpt>
      <trkpt lat="45.74106" lon="2.96695">
        <ele>971.526611</ele>
        <time>2012-06-15T10:01:13Z</time>
      </trkpt>
      <trkpt lat="45.74127" lon="2.96746">
        <ele>969.292053</ele>
        <time>2012-06-15T10:01:18Z</time>
      </trkpt>
      <trkpt lat="45.74157" lon="2.96784">
        <ele>966.714661</ele>
        <time>2012-06-15T10:01:24Z</time>
      </trkpt>
      <trkpt lat="45.74198" lon="2.9681">
        <ele>966.007507</ele>
        <time>2012-06-15T10:01:30Z</time>
      </trkpt>
      <trkpt lat="45.74232" lon="2.96837">
        <ele>965.472473</ele>
        <time>2012-06-15T10:01:35Z</time>
      </trkpt>
      <trkpt lat="45.74264" lon="2.96866">
        <ele>964.637512</ele>
        <time>2012-06-15T10:01:40Z</time>
      </trkpt>
      <trkpt lat="45.74298" lon="2.96896">
        <ele>963.904968</ele>
        <time>2012-06-15T10:01:45Z</time>
      </trkpt>
      <trkpt lat="45.74304" lon="2.96902">
        <ele>963.712524</ele>
        <time>2012-06-15T10:01:46Z</time>
      </trkpt>
      <trkpt lat="45.74374" lon="2.96929">
        <ele>963.63501</ele>
        <time>2012-06-15T10:01:55Z</time>
      </trkpt>
      <trkpt lat="45.74412" lon="2.96944">
        <ele>962.715027</ele>
        <time>2012-06-15T10:02:00Z</time>
      </trkpt>
      <trkpt lat="45.74451" lon="2.96964">
        <ele>961.21228</ele>
        <time>2012-06-15T10:02:05Z</time>
      </trkpt>
      <trkpt lat="45.74493" lon="2.96982">
        <ele>959.51709</ele>
        <time>2012-06-15T10:02:10Z</time>
      </trkpt>
      <trkpt lat="45.74537" lon="2.96993">
        <ele>957.494995</ele>
        <time>2012-06-15T10:02:15Z</time>
      </trkpt>
      <trkpt lat="45.74573" lon="2.97003">
        <ele>954.849976</ele>
        <time>2012-06-15T10:02:19Z</time>
      </trkpt>
      <trkpt lat="45.74615" lon="2.97007">
        <ele>951.864136</ele>
        <time>2012-06-15T10:02:24Z</time>
      </trkpt>
      <trkpt lat="45.74655" lon="2.96988">
        <ele>950.347473</ele>
        <time>2012-06-15T10:02:30Z</time>
      </trkpt>
      <trkpt lat="45.74697" lon="2.96971">
        <ele>949.391418</ele>
        <time>2012-06-15T10:02:36Z</time>
      </trkpt>
      <trkpt lat="45.74734" lon="2.96953">
        <ele>948.679993</ele>
        <time>2012-06-15T10:02:41Z</time>
      </trkpt>
      <trkpt lat="45.7477" lon="2.96934">
        <ele>948.677551</ele>
        <time>2012-06-15T10:02:46Z</time>
      </trkpt>
      <trkpt lat="45.74777" lon="2.9693">
        <ele>948.67688</ele>
        <time>2012-06-15T10:02:47Z</time>
      </trkpt>
      <trkpt lat="45.7485" lon="2.96894">
        <ele>949.120056</ele>
        <time>2012-06-15T10:02:58Z</time>
      </trkpt>
      <trkpt lat="45.74893" lon="2.96877">
        <ele>949.59314</ele>
        <time>2012-06-15T10:03:05Z</time>
      </trkpt>
      <trkpt lat="45.74936" lon="2.96865">
        <ele>950.730042</ele>
        <time>2012-06-15T10:03:12Z</time>
      </trkpt>
      <trkpt lat="45.74977" lon="2.96851">
        <ele>952.16272</ele>
        <time>2012-06-15T10:03:19Z</time>
      </trkpt>
      <trkpt lat="45.75017" lon="2.96839">
        <ele>952.66626</ele>
        <time>2012-06-15T10:03:26Z</time>
      </trkpt>
      <trkpt lat="45.75057" lon="2.96831">
        <ele>952.811279</ele>
        <time>2012-06-15T10:03:33Z</time>
      </trkpt>
      <trkpt lat="45.751" lon="2.96821">
        <ele>952.961243</ele>
        <time>2012-06-15T10:03:41Z</time>
      </trkpt>
      <trkpt lat="45.75142" lon="2.96807">
        <ele>953.207031</ele>
        <time>2012-06-15T10:03:49Z</time>
      </trkpt>
      <trkpt lat="45.75146" lon="2.96805">
        <ele>953.256226</ele>
        <time>2012-06-15T10:03:50Z</time>
      </trkpt>
      <trkpt lat="45.75223" lon="2.96784">
        <ele>954.501526</ele>
        <time>2012-06-15T10:04:07Z</time>
      </trkpt>
      <trkpt lat="45.75264" lon="2.96789">
        <ele>955.266235</ele>
        <time>2012-06-15T10:04:16Z</time>
      </trkpt>
      <trkpt lat="45.75294" lon="2.96829">
        <ele>955.316284</ele>
        <time>2012-06-15T10:04:26Z</time>
      </trkpt>
      <trkpt lat="45.75318" lon="2.96883">
        <ele>955.026245</ele>
        <time>2012-06-15T10:04:35Z</time>
      </trkpt>
      <trkpt lat="45.75341" lon="2.96932">
        <ele>955.134583</ele>
        <time>2012-06-15T10:04:42Z</time>
      </trkpt>
      <trkpt lat="45.75365" lon="2.96983">
        <ele>955.527527</ele>
        <time>2012-06-15T10:04:49Z</time>
      </trkpt>
      <trkpt lat="45.75386" lon="2.97029">
        <ele>955.413757</ele>
        <time>2012-06-15T10:04:55Z</time>
      </trkpt>
      <trkpt lat="45.7539" lon="2.97036">
        <ele>955.470337</ele>
        <time>2012-06-15T10:04:56Z</time>
      </trkpt>
      <trkpt lat="45.75433" lon="2.97124">
        <ele>955.577942</ele>
        <time>2012-06-15T10:05:07Z</time>
      </trkpt>
      <trkpt lat="45.75457" lon="2.97174">
        <ele>955.642517</ele>
        <time>2012-06-15T10:05:13Z</time>
      </trkpt>
      <trkpt lat="45.7548" lon="2.97224">
        <ele>955.387512</ele>
        <time>2012-06-15T10:05:19Z</time>
      </trkpt>
      <trkpt lat="45.75503" lon="2.97276">
        <ele>954.966248</ele>
        <time>2012-06-15T10:05:25Z</time>
      </trkpt>
      <trkpt lat="45.75528" lon="2.97323">
        <ele>954.233765</ele>
        <time>2012-06-15T10:05:31Z</time>
      </trkpt>
      <trkpt lat="45.75563" lon="2.97357">
        <ele>953.363525</ele>
        <time>2012-06-15T10:05:40Z</time>
      </trkpt>
      <trkpt lat="45.75607" lon="2.97371">
        <ele>952.771667</ele>
        <time>2012-06-15T10:05:53Z</time>
      </trkpt>
      <trkpt lat="45.75649" lon="2.97377">
        <ele>951.149414</ele>
        <time>2012-06-15T10:06:01Z</time>
      </trkpt>
      <trkpt lat="45.75654" lon="2.97379">
        <ele>950.698242</ele>
        <time>2012-06-15T10:06:02Z</time>
      </trkpt>
      <trkpt lat="45.75727" lon="2.97396">
        <ele>944.881165</ele>
        <time>2012-06-15T10:06:13Z</time>
      </trkpt>
      <trkpt lat="45.75769" lon="2.974">
        <ele>941.179993</ele>
        <time>2012-06-15T10:06:20Z</time>
      </trkpt>
      <trkpt lat="45.75813" lon="2.97398">
        <ele>939.380005</ele>
        <time>2012-06-15T10:06:27Z</time>
      </trkpt>
      <trkpt lat="45.7585" lon="2.97394">
        <ele>938.015015</ele>
        <time>2012-06-15T10:06:33Z</time>
      </trkpt>
      <trkpt lat="45.75894" lon="2.97392">
        <ele>936.004089</ele>
        <time>2012-06-15T10:06:41Z</time>
      </trkpt>
      <trkpt lat="45.75938" lon="2.974">
        <ele>935.43927</ele>
        <time>2012-06-15T10:06:51Z</time>
      </trkpt>
      <trkpt lat="45.75978" lon="2.97422">
        <ele>935.339661</ele>
        <time>2012-06-15T10:06:59Z</time>
      </trkpt>
      <trkpt lat="45.76008" lon="2.97457">
        <ele>934.166016</ele>
        <time>2012-06-15T10:07:05Z</time>
      </trkpt>
      <trkpt lat="45.76013" lon="2.97462">
        <ele>934.161804</ele>
        <time>2012-06-15T10:07:06Z</time>
      </trkpt>
      <trkpt lat="45.76084" lon="2.97521">
        <ele>932.359375</ele>
        <time>2012-06-15T10:07:20Z</time>
      </trkpt>
      <trkpt lat="45.7612" lon="2.97555">
        <ele>929.766235</ele>
        <time>2012-06-15T10:07:29Z</time>
      </trkpt>
      <trkpt lat="45.76156" lon="2.97589">
        <ele>925.884277</ele>
        <time>2012-06-15T10:07:40Z</time>
      </trkpt>
      <trkpt lat="45.76196" lon="2.97614">
        <ele>923.845764</ele>
        <time>2012-06-15T10:07:52Z</time>
      </trkpt>
      <trkpt lat="45.76236" lon="2.97632">
        <ele>922.755005</ele>
        <time>2012-06-15T10:08:01Z</time>
      </trkpt>
      <trkpt lat="45.76275" lon="2.97662">
        <ele>922.10498</ele>
        <time>2012-06-15T10:08:18Z</time>
      </trkpt>
      <trkpt lat="45.76278" lon="2.97665">
        <ele>922.044983</ele>
        <time>2012-06-15T10:08:19Z</time>
      </trkpt>
      <trkpt lat="45.76344" lon="2.97732">
        <ele>921.872498</ele>
        <time>2012-06-15T10:08:45Z</time>
      </trkpt>
      <trkpt lat="45.7638" lon="2.97762">
        <ele>922.494995</ele>
        <time>2012-06-15T10:08:55Z</time>
      </trkpt>
      <trkpt lat="45.76416" lon="2.97797">
        <ele>923.053101</ele>
        <time>2012-06-15T10:09:23Z</time>
      </trkpt>
      <trkpt lat="45.76419" lon="2.978">
        <ele>923.049988</ele>
        <time>2012-06-15T10:09:24Z</time>
      </trkpt>
      <trkpt lat="45.76492" lon="2.97848">
        <ele>923.971069</ele>
        <time>2012-06-15T10:09:45Z</time>
      </trkpt>
      <trkpt lat="45.76534" lon="2.97872">
        <ele>924.012512</ele>
        <time>2012-06-15T10:09:57Z</time>
      </trkpt>
      <trkpt lat="45.76575" lon="2.97876">
        <ele>925.726624</ele>
        <time>2012-06-15T10:10:06Z</time>
      </trkpt>
      <trkpt lat="45.7662" lon="2.97878">
        <ele>927.445007</ele>
        <time>2012-06-15T10:10:16Z</time>
      </trkpt>
      <trkpt lat="45.76662" lon="2.97875">
        <ele>928.549988</ele>
        <time>2012-06-15T10:10:28Z</time>
      </trkpt>
      <trkpt lat="45.76665" lon="2.97874">
        <ele>928.643738</ele>
        <time>2012-06-15T10:10:29Z</time>
      </trkpt>
      <trkpt lat="45.76743" lon="2.9791">
        <ele>928.219849</ele>
        <time>2012-06-15T10:10:54Z</time>
      </trkpt>
      <trkpt lat="45.76785" lon="2.97922">
        <ele>928.282471</ele>
        <time>2012-06-15T10:11:02Z</time>
      </trkpt>
      <trkpt lat="45.76827" lon="2.97933">
        <ele>927.880005</ele>
        <time>2012-06-15T10:11:10Z</time>
      </trkpt>
      <trkpt lat="45.76868" lon="2.9794">
        <ele>928.495422</ele>
        <time>2012-06-15T10:11:18Z</time>
      </trkpt>
      <trkpt lat="45.76911" lon="2.97942">
        <ele>929.632507</ele>
        <time>2012-06-15T10:11:27Z</time>
      </trkpt>
      <trkpt lat="45.76954" lon="2.9795">
        <ele>930.349976</ele>
        <time>2012-06-15T10:11:36Z</time>
      </trkpt>
      <trkpt lat="45.76959" lon="2.97952">
        <ele>930.422485</ele>
        <time>2012-06-15T10:11:37Z</time>
      </trkpt>
      <trkpt lat="45.7703" lon="2.97998">
        <ele>929.388062</ele>
        <time>2012-06-15T10:11:55Z</time>
      </trkpt>
      <trkpt lat="45.77068" lon="2.98026">
        <ele>928.445007</ele>
        <time>2012-06-15T10:13:24Z</time>
      </trkpt>
      <trkpt lat="45.77072" lon="2.98029">
        <ele>928.29248</ele>
        <time>2012-06-15T10:13:25Z</time>
      </trkpt>
      <trkpt lat="45.77173" lon="2.98108">
        <ele>922.06604</ele>
        <time>2012-06-15T10:13:49Z</time>
      </trkpt>
      <trkpt lat="45.7727" lon="2.98211">
        <ele>915.362793</ele>
        <time>2012-06-15T10:14:14Z</time>
      </trkpt>
      <trkpt lat="45.77428" lon="2.98285">
        <ele>915.48999</ele>
        <time>2012-06-15T10:14:49Z</time>
      </trkpt>
      <trkpt lat="45.77568" lon="2.98346">
        <ele>917.50531</ele>
        <time>2012-06-15T10:15:19Z</time>
      </trkpt>
      <trkpt lat="45.77666" lon="2.9842">
        <ele>920.548035</ele>
        <time>2012-06-15T10:15:42Z</time>
      </trkpt>
      <trkpt lat="45.77823" lon="2.98469">
        <ele>924.397522</ele>
        <time>2012-06-15T10:16:15Z</time>
      </trkpt>
      <trkpt lat="45.77948" lon="2.98538">
        <ele>924.029663</ele>
        <time>2012-06-15T10:16:43Z</time>
      </trkpt>
      <trkpt lat="45.78046" lon="2.98587">
        <ele>922.237183</ele>
        <time>2012-06-15T10:17:05Z</time>
      </trkpt>
      <trkpt lat="45.78087" lon="2.98589">
        <ele>921.98999</ele>
        <time>2012-06-15T10:17:13Z</time>
      </trkpt>
      <trkpt lat="45.78131" lon="2.98582">
        <ele>922.36377</ele>
        <time>2012-06-15T10:17:23Z</time>
      </trkpt>
      <trkpt lat="45.78173" lon="2.98577">
        <ele>923.778992</ele>
        <time>2012-06-15T10:17:31Z</time>
      </trkpt>
      <trkpt lat="45.78215" lon="2.98561">
        <ele>925.245178</ele>
        <time>2012-06-15T10:17:40Z</time>
      </trkpt>
      <trkpt lat="45.78219" lon="2.98559">
        <ele>925.335571</ele>
        <time>2012-06-15T10:17:41Z</time>
      </trkpt>
      <trkpt lat="45.78299" lon="2.98536">
        <ele>926.868774</ele>
        <time>2012-06-15T10:18:01Z</time>
      </trkpt>
      <trkpt lat="45.78343" lon="2.98528">
        <ele>926.998779</ele>
        <time>2012-06-15T10:18:13Z</time>
      </trkpt>
      <trkpt lat="45.78385" lon="2.98518">
        <ele>927.814697</ele>
        <time>2012-06-15T10:18:26Z</time>
      </trkpt>
      <trkpt lat="45.78425" lon="2.98504">
        <ele>928.93335</ele>
        <time>2012-06-15T10:18:37Z</time>
      </trkpt>
      <trkpt lat="45.78464" lon="2.98485">
        <ele>929.82251</ele>
        <time>2012-06-15T10:18:47Z</time>
      </trkpt>
      <trkpt lat="45.78468" lon="2.98483">
        <ele>929.938782</ele>
        <time>2012-06-15T10:18:48Z</time>
      </trkpt>
      <trkpt lat="45.78543" lon="2.98445">
        <ele>932.512512</ele>
        <time>2012-06-15T10:19:09Z</time>
      </trkpt>
      <trkpt lat="45.78587" lon="2.9843">
        <ele>933.955017</ele>
        <time>2012-06-15T10:19:22Z</time>
      </trkpt>
      <trkpt lat="45.7863" lon="2.98416">
        <ele>935.367493</ele>
        <time>2012-06-15T10:19:34Z</time>
      </trkpt>
      <trkpt lat="45.7867" lon="2.9841">
        <ele>935.857544</ele>
        <time>2012-06-15T10:19:43Z</time>
      </trkpt>
      <trkpt lat="45.78711" lon="2.98408">
        <ele>935.929993</ele>
        <time>2012-06-15T10:19:52Z</time>
      </trkpt>
      <trkpt lat="45.78716" lon="2.98408">
        <ele>935.92627</ele>
        <time>2012-06-15T10:19:53Z</time>
      </trkpt>
      <trkpt lat="45.78799" lon="2.98419">
        <ele>935.782471</ele>
        <time>2012-06-15T10:20:11Z</time>
      </trkpt>
      <trkpt lat="45.7884" lon="2.98437">
        <ele>935.962524</ele>
        <time>2012-06-15T10:20:26Z</time>
      </trkpt>
      <trkpt lat="45.78878" lon="2.98409">
        <ele>937.248718</ele>
        <time>2012-06-15T10:20:44Z</time>
      </trkpt>
      <trkpt lat="45.78901" lon="2.98355">
        <ele>937.8125</ele>
        <time>2012-06-15T10:20:58Z</time>
      </trkpt>
      <trkpt lat="45.78902" lon="2.98352">
        <ele>937.844971</ele>
        <time>2012-06-15T10:20:59Z</time>
      </trkpt>
      <trkpt lat="45.78949" lon="2.98253">
        <ele>939.782471</ele>
        <time>2012-06-15T10:21:28Z</time>
      </trkpt>
      <trkpt lat="45.78968" lon="2.98198">
        <ele>941.782471</ele>
        <time>2012-06-15T10:21:42Z</time>
      </trkpt>
      <trkpt lat="45.78997" lon="2.98154">
        <ele>943.794983</ele>
        <time>2012-06-15T10:21:55Z</time>
      </trkpt>
      <trkpt lat="45.79022" lon="2.98101">
        <ele>946.005005</ele>
        <time>2012-06-15T10:22:09Z</time>
      </trkpt>
      <trkpt lat="45.79024" lon="2.98097">
        <ele>946.16748</ele>
        <time>2012-06-15T10:22:10Z</time>
      </trkpt>
      <trkpt lat="45.7908" lon="2.98007">
        <ele>951.434998</ele>
        <time>2012-06-15T10:22:40Z</time>
      </trkpt>
      <trkpt lat="45.79108" lon="2.97958">
        <ele>955.784668</ele>
        <time>2012-06-15T10:22:57Z</time>
      </trkpt>
      <trkpt lat="45.79137" lon="2.9791">
        <ele>960.034363</ele>
        <time>2012-06-15T10:23:17Z</time>
      </trkpt>
      <trkpt lat="45.79138" lon="2.97907">
        <ele>960.23407</ele>
        <time>2012-06-15T10:23:18Z</time>
      </trkpt>
      <trkpt lat="45.79194" lon="2.97813">
        <ele>967.553894</ele>
        <time>2012-06-15T10:23:59Z</time>
      </trkpt>
      <trkpt lat="45.79222" lon="2.97764">
        <ele>971.078064</ele>
        <time>2012-06-15T10:24:19Z</time>
      </trkpt>
      <trkpt lat="45.79223" lon="2.97763">
        <ele>971.238708</ele>
        <time>2012-06-15T10:24:20Z</time>
      </trkpt>
      <trkpt lat="45.79299" lon="2.97811">
        <ele>976.070557</ele>
        <time>2012-06-15T10:25:10Z</time>
      </trkpt>
      <trkpt lat="45.79333" lon="2.97854">
        <ele>977.534912</ele>
        <time>2012-06-15T10:26:52Z</time>
      </trkpt>
      <trkpt lat="45.79335" lon="2.97856">
        <ele>977.652832</ele>
        <time>2012-06-15T10:26:53Z</time>
      </trkpt>
      <trkpt lat="45.79385" lon="2.97955">
        <ele>974.864563</ele>
        <time>2012-06-15T10:27:10Z</time>
      </trkpt>
      <trkpt lat="45.7941" lon="2.98004">
        <ele>973.485474</ele>
        <time>2012-06-15T10:27:16Z</time>
      </trkpt>
      <trkpt lat="45.79432" lon="2.98056">
        <ele>971.759155</ele>
        <time>2012-06-15T10:27:22Z</time>
      </trkpt>
      <trkpt lat="45.79463" lon="2.98099">
        <ele>971.545227</ele>
        <time>2012-06-15T10:27:29Z</time>
      </trkpt>
      <trkpt lat="45.79494" lon="2.98138">
        <ele>971.303589</ele>
        <time>2012-06-15T10:27:36Z</time>
      </trkpt>
      <trkpt lat="45.79525" lon="2.98177">
        <ele>969.439331</ele>
        <time>2012-06-15T10:27:42Z</time>
      </trkpt>
      <trkpt lat="45.79561" lon="2.98214">
        <ele>967.21344</ele>
        <time>2012-06-15T10:27:48Z</time>
      </trkpt>
      <trkpt lat="45.79595" lon="2.98249">
        <ele>964.651245</ele>
        <time>2012-06-15T10:27:54Z</time>
      </trkpt>
      <trkpt lat="45.79601" lon="2.98255">
        <ele>964.382507</ele>
        <time>2012-06-15T10:27:55Z</time>
      </trkpt>
      <trkpt lat="45.79673" lon="2.98286">
        <ele>964.00769</ele>
        <time>2012-06-15T10:28:10Z</time>
      </trkpt>
      <trkpt lat="45.79715" lon="2.98291">
        <ele>964.75824</ele>
        <time>2012-06-15T10:28:22Z</time>
      </trkpt>
      <trkpt lat="45.79757" lon="2.98299">
        <ele>965.629761</ele>
        <time>2012-06-15T10:28:31Z</time>
      </trkpt>
      <trkpt lat="45.79794" lon="2.98321">
        <ele>966.450562</ele>
        <time>2012-06-15T10:28:38Z</time>
      </trkpt>
      <trkpt lat="45.79837" lon="2.98336">
        <ele>966.652527</ele>
        <time>2012-06-15T10:28:46Z</time>
      </trkpt>
      <trkpt lat="45.79878" lon="2.98353">
        <ele>965.480164</ele>
        <time>2012-06-15T10:28:58Z</time>
      </trkpt>
      <trkpt lat="45.79881" lon="2.98354">
        <ele>965.342285</ele>
        <time>2012-06-15T10:28:59Z</time>
      </trkpt>
      <trkpt lat="45.79964" lon="2.9835">
        <ele>965.157104</ele>
        <time>2012-06-15T10:29:12Z</time>
      </trkpt>
      <trkpt lat="45.80005" lon="2.98355">
        <ele>964.97998</ele>
        <time>2012-06-15T10:29:19Z</time>
      </trkpt>
      <trkpt lat="45.80048" lon="2.98372">
        <ele>964.467529</ele>
        <time>2012-06-15T10:29:29Z</time>
      </trkpt>
      <trkpt lat="45.8009" lon="2.9838">
        <ele>964.578125</ele>
        <time>2012-06-15T10:29:41Z</time>
      </trkpt>
      <trkpt lat="45.80132" lon="2.98386">
        <ele>966.11377</ele>
        <time>2012-06-15T10:29:56Z</time>
      </trkpt>
      <trkpt lat="45.80177" lon="2.98381">
        <ele>969.081421</ele>
        <time>2012-06-15T10:30:10Z</time>
      </trkpt>
      <trkpt lat="45.80179" lon="2.98382">
        <ele>969.229858</ele>
        <time>2012-06-15T10:30:11Z</time>
      </trkpt>
      <trkpt lat="45.80237" lon="2.98467">
        <ele>971.612488</ele>
        <time>2012-06-15T10:31:06Z</time>
      </trkpt>
      <trkpt lat="45.80281" lon="2.98479">
        <ele>973.515015</ele>
        <time>2012-06-15T10:32:23Z</time>
      </trkpt>
      <trkpt lat="45.80286" lon="2.98479">
        <ele>973.627502</ele>
        <time>2012-06-15T10:32:24Z</time>
      </trkpt>
      <trkpt lat="45.80359" lon="2.98425">
        <ele>975.195007</ele>
        <time>2012-06-15T10:32:51Z</time>
      </trkpt>
      <trkpt lat="45.80354" lon="2.98364">
        <ele>976.844299</ele>
        <time>2012-06-15T10:33:30Z</time>
      </trkpt>
      <trkpt lat="45.80354" lon="2.98361">
        <ele>976.940857</ele>
        <time>2012-06-15T10:33:31Z</time>
      </trkpt>
      <trkpt lat="45.80373" lon="2.98252">
        <ele>981.887756</ele>
        <time>2012-06-15T10:34:01Z</time>
      </trkpt>
      <trkpt lat="45.8038" lon="2.98192">
        <ele>986.968323</ele>
        <time>2012-06-15T10:34:14Z</time>
      </trkpt>
      <trkpt lat="45.80393" lon="2.98132">
        <ele>993.075989</ele>
        <time>2012-06-15T10:34:31Z</time>
      </trkpt>
      <trkpt lat="45.80394" lon="2.98128">
        <ele>993.461243</ele>
        <time>2012-06-15T10:34:32Z</time>
      </trkpt>
      <trkpt lat="45.80424" lon="2.98012">
        <ele>1004.923889</ele>
        <time>2012-06-15T10:35:36Z</time>
      </trkpt>
      <trkpt lat="45.80425" lon="2.98009">
        <ele>1005.356873</ele>
        <time>2012-06-15T10:35:37Z</time>
      </trkpt>
      <trkpt lat="45.80452" lon="2.97896">
        <ele>1012.61377</ele>
        <time>2012-06-15T10:36:16Z</time>
      </trkpt>
      <trkpt lat="45.80454" lon="2.97834">
        <ele>1014.610657</ele>
        <time>2012-06-15T10:36:34Z</time>
      </trkpt>
      <trkpt lat="45.80457" lon="2.9777">
        <ele>1017.928894</ele>
        <time>2012-06-15T10:36:51Z</time>
      </trkpt>
      <trkpt lat="45.80456" lon="2.97767">
        <ele>1017.996033</ele>
        <time>2012-06-15T10:36:52Z</time>
      </trkpt>
      <trkpt lat="45.80459" lon="2.97648">
        <ele>1019.359985</ele>
        <time>2012-06-15T10:37:24Z</time>
      </trkpt>
      <trkpt lat="45.80463" lon="2.9759">
        <ele>1019.44751</ele>
        <time>2012-06-15T10:37:32Z</time>
      </trkpt>
      <trkpt lat="45.80445" lon="2.97532">
        <ele>1020.670837</ele>
        <time>2012-06-15T10:37:47Z</time>
      </trkpt>
      <trkpt lat="45.80403" lon="2.97513">
        <ele>1020.891846</ele>
        <time>2012-06-15T10:38:01Z</time>
      </trkpt>
      <trkpt lat="45.804" lon="2.97512">
        <ele>1021.038452</ele>
        <time>2012-06-15T10:38:02Z</time>
      </trkpt>
      <trkpt lat="45.80319" lon="2.9748">
        <ele>1025.755127</ele>
        <time>2012-06-15T10:38:32Z</time>
      </trkpt>
      <trkpt lat="45.80279" lon="2.97455">
        <ele>1029.156006</ele>
        <time>2012-06-15T10:38:46Z</time>
      </trkpt>
      <trkpt lat="45.80237" lon="2.97443">
        <ele>1032.662964</ele>
        <time>2012-06-15T10:39:03Z</time>
      </trkpt>
      <trkpt lat="45.80235" lon="2.97443">
        <ele>1032.883301</ele>
        <time>2012-06-15T10:39:04Z</time>
      </trkpt>
      <trkpt lat="45.80152" lon="2.97446">
        <ele>1043.972534</ele>
        <time>2012-06-15T10:39:37Z</time>
      </trkpt>
      <trkpt lat="45.8011" lon="2.97428">
        <ele>1050.619995</ele>
        <time>2012-06-15T10:41:18Z</time>
      </trkpt>
      <trkpt lat="45.80108" lon="2.97429">
        <ele>1050.876221</ele>
        <time>2012-06-15T10:41:19Z</time>
      </trkpt>
      <trkpt lat="45.80039" lon="2.97494">
        <ele>1060.453735</ele>
        <time>2012-06-15T10:42:00Z</time>
      </trkpt>
      <trkpt lat="45.80031" lon="2.97556">
        <ele>1062.625</ele>
        <time>2012-06-15T10:42:25Z</time>
      </trkpt>
      <trkpt lat="45.80031" lon="2.97559">
        <ele>1062.703735</ele>
        <time>2012-06-15T10:42:26Z</time>
      </trkpt>
      <trkpt lat="45.80001" lon="2.97674">
        <ele>1073.740234</ele>
        <time>2012-06-15T10:43:09Z</time>
      </trkpt>
      <trkpt lat="45.79987" lon="2.97733">
        <ele>1074.862061</ele>
        <time>2012-06-15T10:43:34Z</time>
      </trkpt>
      <trkpt lat="45.79986" lon="2.97735">
        <ele>1074.839844</ele>
        <time>2012-06-15T10:43:35Z</time>
      </trkpt>
      <trkpt lat="45.79911" lon="2.97787">
        <ele>1075.311523</ele>
        <time>2012-06-15T10:44:14Z</time>
      </trkpt>
      <trkpt lat="45.79868" lon="2.97796">
        <ele>1074.89624</ele>
        <time>2012-06-15T10:44:32Z</time>
      </trkpt>
      <trkpt lat="45.79841" lon="2.97745">
        <ele>1085.223755</ele>
        <time>2012-06-15T10:48:16Z</time>
      </trkpt>
      <trkpt lat="45.79841" lon="2.97739">
        <ele>1086.35376</ele>
        <time>2012-06-15T10:48:17Z</time>
      </trkpt>
      <trkpt lat="45.79822" lon="2.97622">
        <ele>1105.514404</ele>
        <time>2012-06-15T10:48:46Z</time>
      </trkpt>
      <trkpt lat="45.79839" lon="2.97565">
        <ele>1112.395752</ele>
        <time>2012-06-15T10:49:08Z</time>
      </trkpt>
      <trkpt lat="45.79846" lon="2.97503">
        <ele>1120.348267</ele>
        <time>2012-06-15T10:50:43Z</time>
      </trkpt>
      <trkpt lat="45.79847" lon="2.97499">
        <ele>1120.734619</ele>
        <time>2012-06-15T10:50:44Z</time>
      </trkpt>
      <trkpt lat="45.79854" lon="2.97437">
        <ele>1128.180664</ele>
        <time>2012-06-15T10:51:57Z</time>
      </trkpt>
      <trkpt lat="45.79859" lon="2.97317">
        <ele>1140.053467</ele>
        <time>2012-06-15T10:53:49Z</time>
      </trkpt>
      <trkpt lat="45.79858" lon="2.97313">
        <ele>1140.544067</ele>
        <time>2012-06-15T10:53:50Z</time>
      </trkpt>
      <trkpt lat="45.79848" lon="2.97253">
        <ele>1149.084351</ele>
        <time>2012-06-15T10:54:57Z</time>
      </trkpt>
      <trkpt lat="45.79818" lon="2.97139">
        <ele>1157.785767</ele>
        <time>2012-06-15T10:55:38Z</time>
      </trkpt>
      <trkpt lat="45.79796" lon="2.97084">
        <ele>1153.817627</ele>
        <time>2012-06-15T10:56:02Z</time>
      </trkpt>
      <trkpt lat="45.79795" lon="2.97082">
        <ele>1153.910767</ele>
        <time>2012-06-15T10:56:03Z</time>
      </trkpt>
      <trkpt lat="45.79739" lon="2.9699">
        <ele>1163.050659</ele>
        <time>2012-06-15T10:56:50Z</time>
      </trkpt>
      <trkpt lat="45.79699" lon="2.96964">
        <ele>1168.343872</ele>
        <time>2012-06-15T10:58:24Z</time>
      </trkpt>
      <trkpt lat="45.79696" lon="2.96963">
        <ele>1168.860962</ele>
        <time>2012-06-15T10:58:25Z</time>
      </trkpt>
      <trkpt lat="45.79615" lon="2.96964">
        <ele>1184.872437</ele>
        <time>2012-06-15T11:01:04Z</time>
      </trkpt>
      <trkpt lat="45.79609" lon="2.96968">
        <ele>1186.016113</ele>
        <time>2012-06-15T11:01:05Z</time>
      </trkpt>
      <trkpt lat="45.79658" lon="2.9694">
        <ele>1179.901367</ele>
        <time>2012-06-15T11:09:47Z</time>
      </trkpt>
      <trkpt lat="45.79736" lon="2.96984">
        <ele>1162.997192</ele>
        <time>2012-06-15T11:10:20Z</time>
      </trkpt>
      <trkpt lat="45.79772" lon="2.97019">
        <ele>1158.71875</ele>
        <time>2012-06-15T11:10:31Z</time>
      </trkpt>
      <trkpt lat="45.79796" lon="2.97071">
        <ele>1154.014282</ele>
        <time>2012-06-15T11:10:44Z</time>
      </trkpt>
      <trkpt lat="45.79818" lon="2.97127">
        <ele>1156.878662</ele>
        <time>2012-06-15T11:11:00Z</time>
      </trkpt>
      <trkpt lat="45.79821" lon="2.97131">
        <ele>1156.190918</ele>
        <time>2012-06-15T11:11:01Z</time>
      </trkpt>
      <trkpt lat="45.79852" lon="2.97238">
        <ele>1147.812256</ele>
        <time>2012-06-15T11:11:35Z</time>
      </trkpt>
      <trkpt lat="45.79865" lon="2.97297">
        <ele>1138.832153</ele>
        <time>2012-06-15T11:12:05Z</time>
      </trkpt>
      <trkpt lat="45.79866" lon="2.97302">
        <ele>1138.251831</ele>
        <time>2012-06-15T11:12:06Z</time>
      </trkpt>
      <trkpt lat="45.79861" lon="2.97418">
        <ele>1127.95752</ele>
        <time>2012-06-15T11:12:28Z</time>
      </trkpt>
      <trkpt lat="45.79853" lon="2.97476">
        <ele>1123.062866</ele>
        <time>2012-06-15T11:12:39Z</time>
      </trkpt>
      <trkpt lat="45.79827" lon="2.97551">
        <ele>1117.032715</ele>
        <time>2012-06-15T11:12:49Z</time>
      </trkpt>
      <trkpt lat="45.79803" lon="2.976">
        <ele>1111.579468</ele>
        <time>2012-06-15T11:12:56Z</time>
      </trkpt>
      <trkpt lat="45.79825" lon="2.97651">
        <ele>1100.574219</ele>
        <time>2012-06-15T11:13:06Z</time>
      </trkpt>
      <trkpt lat="45.79826" lon="2.97656">
        <ele>1099.799805</ele>
        <time>2012-06-15T11:13:07Z</time>
      </trkpt>
      <trkpt lat="45.79816" lon="2.97732">
        <ele>1087.943726</ele>
        <time>2012-06-15T11:13:55Z</time>
      </trkpt>
      <trkpt lat="45.7985" lon="2.97784">
        <ele>1077.997559</ele>
        <time>2012-06-15T11:14:11Z</time>
      </trkpt>
      <trkpt lat="45.79854" lon="2.97787">
        <ele>1077.175781</ele>
        <time>2012-06-15T11:14:12Z</time>
      </trkpt>
      <trkpt lat="45.79936" lon="2.97735">
        <ele>1081.935181</ele>
        <time>2012-06-15T11:14:51Z</time>
      </trkpt>
      <trkpt lat="45.7997" lon="2.9768">
        <ele>1080.0448</ele>
        <time>2012-06-15T11:15:01Z</time>
      </trkpt>
      <trkpt lat="45.8" lon="2.97638">
        <ele>1073.177734</ele>
        <time>2012-06-15T11:15:09Z</time>
      </trkpt>
      <trkpt lat="45.80022" lon="2.97574">
        <ele>1065.44751</ele>
        <time>2012-06-15T11:15:16Z</time>
      </trkpt>
      <trkpt lat="45.80026" lon="2.97561">
        <ele>1064.23999</ele>
        <time>2012-06-15T11:15:18Z</time>
      </trkpt>
      <trkpt lat="45.80062" lon="2.97447">
        <ele>1056.888794</ele>
        <time>2012-06-15T11:15:40Z</time>
      </trkpt>
      <trkpt lat="45.80112" lon="2.97401">
        <ele>1052.525024</ele>
        <time>2012-06-15T11:15:50Z</time>
      </trkpt>
      <trkpt lat="45.80155" lon="2.97431">
        <ele>1045.836426</ele>
        <time>2012-06-15T11:15:57Z</time>
      </trkpt>
      <trkpt lat="45.80197" lon="2.97431">
        <ele>1041.046387</ele>
        <time>2012-06-15T11:16:23Z</time>
      </trkpt>
      <trkpt lat="45.80201" lon="2.9743">
        <ele>1040.557739</ele>
        <time>2012-06-15T11:16:24Z</time>
      </trkpt>
      <trkpt lat="45.80288" lon="2.97466">
        <ele>1027.05835</ele>
        <time>2012-06-15T11:16:43Z</time>
      </trkpt>
      <trkpt lat="45.80351" lon="2.9748">
        <ele>1027.12915</ele>
        <time>2012-06-15T11:16:54Z</time>
      </trkpt>
      <trkpt lat="45.80402" lon="2.97504">
        <ele>1021.628662</ele>
        <time>2012-06-15T11:17:00Z</time>
      </trkpt>
      <trkpt lat="45.80442" lon="2.9754">
        <ele>1020.449768</ele>
        <time>2012-06-15T11:17:08Z</time>
      </trkpt>
      <trkpt lat="45.80464" lon="2.97587">
        <ele>1019.466431</ele>
        <time>2012-06-15T11:17:15Z</time>
      </trkpt>
      <trkpt lat="45.80456" lon="2.97648">
        <ele>1019.299988</ele>
        <time>2012-06-15T11:17:22Z</time>
      </trkpt>
      <trkpt lat="45.80458" lon="2.97703">
        <ele>1019.344971</ele>
        <time>2012-06-15T11:17:29Z</time>
      </trkpt>
      <trkpt lat="45.80458" lon="2.97713">
        <ele>1019.342529</ele>
        <time>2012-06-15T11:17:30Z</time>
      </trkpt>
      <trkpt lat="45.80455" lon="2.97825">
        <ele>1015.114075</ele>
        <time>2012-06-15T11:17:40Z</time>
      </trkpt>
      <trkpt lat="45.8045" lon="2.97879">
        <ele>1013.042419</ele>
        <time>2012-06-15T11:17:44Z</time>
      </trkpt>
      <trkpt lat="45.80448" lon="2.97942">
        <ele>1011.250366</ele>
        <time>2012-06-15T11:17:50Z</time>
      </trkpt>
      <trkpt lat="45.80432" lon="2.97999">
        <ele>1007.280029</ele>
        <time>2012-06-15T11:18:02Z</time>
      </trkpt>
      <trkpt lat="45.80398" lon="2.9804">
        <ele>999.160034</ele>
        <time>2012-06-15T11:18:14Z</time>
      </trkpt>
      <trkpt lat="45.80376" lon="2.98094">
        <ele>994.111877</ele>
        <time>2012-06-15T11:18:24Z</time>
      </trkpt>
      <trkpt lat="45.8037" lon="2.98152">
        <ele>990.276611</ele>
        <time>2012-06-15T11:18:31Z</time>
      </trkpt>
      <trkpt lat="45.80368" lon="2.9816">
        <ele>989.749939</ele>
        <time>2012-06-15T11:18:32Z</time>
      </trkpt>
      <trkpt lat="45.80347" lon="2.98269">
        <ele>981.975952</ele>
        <time>2012-06-15T11:18:45Z</time>
      </trkpt>
      <trkpt lat="45.80328" lon="2.98323">
        <ele>978.672607</ele>
        <time>2012-06-15T11:18:56Z</time>
      </trkpt>
      <trkpt lat="45.80353" lon="2.98375">
        <ele>976.501648</ele>
        <time>2012-06-15T11:19:08Z</time>
      </trkpt>
      <trkpt lat="45.80361" lon="2.9844">
        <ele>975.018738</ele>
        <time>2012-06-15T11:19:31Z</time>
      </trkpt>
      <trkpt lat="45.8037" lon="2.98503">
        <ele>974.251221</ele>
        <time>2012-06-15T11:19:47Z</time>
      </trkpt>
      <trkpt lat="45.80373" lon="2.98507">
        <ele>974.247498</ele>
        <time>2012-06-15T11:19:48Z</time>
      </trkpt>
      <trkpt lat="45.80358" lon="2.98624">
        <ele>972.23999</ele>
        <time>2012-06-15T11:20:05Z</time>
      </trkpt>
      <trkpt lat="45.80366" lon="2.98683">
        <ele>972.424988</ele>
        <time>2012-06-15T11:20:12Z</time>
      </trkpt>
      <trkpt lat="45.80389" lon="2.98716">
        <ele>972.94751</ele>
        <time>2012-06-15T11:28:40Z</time>
      </trkpt>
    </trkseg>
  </trk>
</gpx>